<?xml version="1.0" encoding="UTF-8" standalone="no" ?>
<gpx xmlns="http://www.topografix.com/GPX/1/1" xmlns:xsi="http://www.w3.org/2001/XMLSchema-instance" xsi:schemaLocation="http://www.topografix.com/GPX/1/1 http://www.topografix.com/GPX/1/1/gpx.xsd" version="1.1" creator="VisuGPX - https://www.visugpx.com">
  <metadata>
    <name>Gravel REVE DE VELO-14500640</name>
  </metadata>
  <trk>
    <name><![CDATA[Gravel REVE DE VELO-14500640]]></name>
    <trkseg>
      <trkpt lat="43.65623" lon="3.54638">
        <ele>55</ele>
        <time>2023-04-30T08:34:12Z</time>
      </trkpt>
      <trkpt lat="43.65595" lon="3.54655">
        <ele>56</ele>
        <time>2023-04-30T08:34:17Z</time>
      </trkpt>
      <trkpt lat="43.65547" lon="3.54666">
        <ele>57</ele>
        <time>2023-04-30T08:34:26Z</time>
      </trkpt>
      <trkpt lat="43.65631" lon="3.54954">
        <ele>58</ele>
        <time>2023-04-30T08:35:06Z</time>
      </trkpt>
      <trkpt lat="43.65338" lon="3.55147">
        <ele>65</ele>
        <time>2023-04-30T08:36:04Z</time>
      </trkpt>
      <trkpt lat="43.65578" lon="3.55549">
        <ele>68</ele>
        <time>2023-04-30T08:37:11Z</time>
      </trkpt>
      <trkpt lat="43.65922" lon="3.55947">
        <ele>58</ele>
        <time>2023-04-30T08:38:31Z</time>
      </trkpt>
      <trkpt lat="43.66408" lon="3.56589">
        <ele>60</ele>
        <time>2023-04-30T08:40:30Z</time>
      </trkpt>
      <trkpt lat="43.66545" lon="3.56637">
        <ele>62</ele>
        <time>2023-04-30T08:40:55Z</time>
      </trkpt>
      <trkpt lat="43.6704" lon="3.56952">
        <ele>61</ele>
        <time>2023-04-30T08:42:32Z</time>
      </trkpt>
      <trkpt lat="43.67848" lon="3.57564">
        <ele>63</ele>
        <time>2023-04-30T08:45:16Z</time>
      </trkpt>
      <trkpt lat="43.68493" lon="3.57689">
        <ele>61</ele>
        <time>2023-04-30T08:47:12Z</time>
      </trkpt>
      <trkpt lat="43.68747" lon="3.57695">
        <ele>54</ele>
        <time>2023-04-30T08:47:57Z</time>
      </trkpt>
      <trkpt lat="43.69087" lon="3.57838">
        <ele>63</ele>
        <time>2023-04-30T08:49:01Z</time>
      </trkpt>
      <trkpt lat="43.69235" lon="3.58195">
        <ele>60</ele>
        <time>2023-04-30T08:49:54Z</time>
      </trkpt>
      <trkpt lat="43.69541" lon="3.57858">
        <ele>61</ele>
        <time>2023-04-30T08:51:03Z</time>
      </trkpt>
      <trkpt lat="43.69596" lon="3.57813">
        <ele>62</ele>
        <time>2023-04-30T08:51:15Z</time>
      </trkpt>
      <trkpt lat="43.69742" lon="3.57682">
        <ele>65</ele>
        <time>2023-04-30T08:51:46Z</time>
      </trkpt>
      <trkpt lat="43.69893" lon="3.57456">
        <ele>63</ele>
        <time>2023-04-30T08:52:25Z</time>
      </trkpt>
      <trkpt lat="43.7003" lon="3.57088">
        <ele>64</ele>
        <time>2023-04-30T08:53:18Z</time>
      </trkpt>
      <trkpt lat="43.7017" lon="3.56756">
        <ele>63</ele>
        <time>2023-04-30T08:54:08Z</time>
      </trkpt>
      <trkpt lat="43.70246" lon="3.56515">
        <ele>67</ele>
        <time>2023-04-30T08:54:42Z</time>
      </trkpt>
      <trkpt lat="43.70305" lon="3.56338">
        <ele>67</ele>
        <time>2023-04-30T08:55:07Z</time>
      </trkpt>
      <trkpt lat="43.70388" lon="3.56203">
        <ele>66</ele>
        <time>2023-04-30T08:55:30Z</time>
      </trkpt>
      <trkpt lat="43.70546" lon="3.56114">
        <ele>68</ele>
        <time>2023-04-30T08:56:00Z</time>
      </trkpt>
      <trkpt lat="43.70721" lon="3.55942">
        <ele>72</ele>
        <time>2023-04-30T08:56:38Z</time>
      </trkpt>
      <trkpt lat="43.70812" lon="3.55774">
        <ele>64</ele>
        <time>2023-04-30T08:57:05Z</time>
      </trkpt>
      <trkpt lat="43.70787" lon="3.55683">
        <ele>63</ele>
        <time>2023-04-30T08:57:18Z</time>
      </trkpt>
      <trkpt lat="43.70762" lon="3.5569">
        <ele>63</ele>
        <time>2023-04-30T08:57:22Z</time>
      </trkpt>
      <trkpt lat="43.7072" lon="3.55601">
        <ele>80</ele>
        <time>2023-04-30T08:57:36Z</time>
      </trkpt>
      <trkpt lat="43.70608" lon="3.55538">
        <ele>78</ele>
        <time>2023-04-30T08:57:57Z</time>
      </trkpt>
      <trkpt lat="43.70558" lon="3.55541">
        <ele>77</ele>
        <time>2023-04-30T08:58:06Z</time>
      </trkpt>
      <trkpt lat="43.70512" lon="3.55517">
        <ele>81</ele>
        <time>2023-04-30T08:58:15Z</time>
      </trkpt>
      <trkpt lat="43.70361" lon="3.55357">
        <ele>91</ele>
        <time>2023-04-30T08:58:49Z</time>
      </trkpt>
      <trkpt lat="43.70232" lon="3.55264">
        <ele>98</ele>
        <time>2023-04-30T08:59:15Z</time>
      </trkpt>
      <trkpt lat="43.7023" lon="3.5521">
        <ele>99</ele>
        <time>2023-04-30T08:59:22Z</time>
      </trkpt>
      <trkpt lat="43.7015" lon="3.55037">
        <ele>105</ele>
        <time>2023-04-30T08:59:48Z</time>
      </trkpt>
      <trkpt lat="43.70133" lon="3.54944">
        <ele>106</ele>
        <time>2023-04-30T09:00:00Z</time>
      </trkpt>
      <trkpt lat="43.70154" lon="3.54166">
        <ele>134</ele>
        <time>2023-04-30T09:01:41Z</time>
      </trkpt>
      <trkpt lat="43.70168" lon="3.5417">
        <ele>135</ele>
        <time>2023-04-30T09:01:43Z</time>
      </trkpt>
      <trkpt lat="43.70205" lon="3.54165">
        <ele>138</ele>
        <time>2023-04-30T09:01:50Z</time>
      </trkpt>
      <trkpt lat="43.70222" lon="3.54157">
        <ele>139</ele>
        <time>2023-04-30T09:01:53Z</time>
      </trkpt>
      <trkpt lat="43.70231" lon="3.54148">
        <ele>139</ele>
        <time>2023-04-30T09:01:55Z</time>
      </trkpt>
      <trkpt lat="43.70244" lon="3.54125">
        <ele>139</ele>
        <time>2023-04-30T09:01:59Z</time>
      </trkpt>
      <trkpt lat="43.70266" lon="3.54095">
        <ele>141</ele>
        <time>2023-04-30T09:02:04Z</time>
      </trkpt>
      <trkpt lat="43.70281" lon="3.54053">
        <ele>143</ele>
        <time>2023-04-30T09:02:10Z</time>
      </trkpt>
      <trkpt lat="43.70304" lon="3.54001">
        <ele>148</ele>
        <time>2023-04-30T09:02:18Z</time>
      </trkpt>
      <trkpt lat="43.70306" lon="3.53933">
        <ele>150</ele>
        <time>2023-04-30T09:02:27Z</time>
      </trkpt>
      <trkpt lat="43.70312" lon="3.53868">
        <ele>153</ele>
        <time>2023-04-30T09:02:35Z</time>
      </trkpt>
      <trkpt lat="43.70331" lon="3.5383">
        <ele>157</ele>
        <time>2023-04-30T09:02:41Z</time>
      </trkpt>
      <trkpt lat="43.70335" lon="3.53816">
        <ele>159</ele>
        <time>2023-04-30T09:02:43Z</time>
      </trkpt>
      <trkpt lat="43.70331" lon="3.53798">
        <ele>161</ele>
        <time>2023-04-30T09:02:46Z</time>
      </trkpt>
      <trkpt lat="43.70295" lon="3.53745">
        <ele>160</ele>
        <time>2023-04-30T09:02:55Z</time>
      </trkpt>
      <trkpt lat="43.70287" lon="3.53723">
        <ele>160</ele>
        <time>2023-04-30T09:02:58Z</time>
      </trkpt>
      <trkpt lat="43.70262" lon="3.53541">
        <ele>170</ele>
        <time>2023-04-30T09:03:22Z</time>
      </trkpt>
      <trkpt lat="43.70247" lon="3.53484">
        <ele>168</ele>
        <time>2023-04-30T09:03:30Z</time>
      </trkpt>
      <trkpt lat="43.70243" lon="3.53449">
        <ele>167</ele>
        <time>2023-04-30T09:03:34Z</time>
      </trkpt>
      <trkpt lat="43.70249" lon="3.53429">
        <ele>167</ele>
        <time>2023-04-30T09:03:37Z</time>
      </trkpt>
      <trkpt lat="43.70254" lon="3.53427">
        <ele>168</ele>
        <time>2023-04-30T09:03:38Z</time>
      </trkpt>
      <trkpt lat="43.70256" lon="3.53436">
        <ele>169</ele>
        <time>2023-04-30T09:03:39Z</time>
      </trkpt>
      <trkpt lat="43.70254" lon="3.53466">
        <ele>169</ele>
        <time>2023-04-30T09:03:43Z</time>
      </trkpt>
      <trkpt lat="43.70263" lon="3.53489">
        <ele>173</ele>
        <time>2023-04-30T09:03:46Z</time>
      </trkpt>
      <trkpt lat="43.7028" lon="3.53519">
        <ele>177</ele>
        <time>2023-04-30T09:03:51Z</time>
      </trkpt>
      <trkpt lat="43.70294" lon="3.5355">
        <ele>179</ele>
        <time>2023-04-30T09:03:56Z</time>
      </trkpt>
      <trkpt lat="43.7032" lon="3.53648">
        <ele>178</ele>
        <time>2023-04-30T09:04:09Z</time>
      </trkpt>
      <trkpt lat="43.70332" lon="3.53668">
        <ele>179</ele>
        <time>2023-04-30T09:04:13Z</time>
      </trkpt>
      <trkpt lat="43.70355" lon="3.53692">
        <ele>181</ele>
        <time>2023-04-30T09:04:18Z</time>
      </trkpt>
      <trkpt lat="43.70392" lon="3.53701">
        <ele>188</ele>
        <time>2023-04-30T09:04:25Z</time>
      </trkpt>
      <trkpt lat="43.70398" lon="3.53707">
        <ele>188</ele>
        <time>2023-04-30T09:04:26Z</time>
      </trkpt>
      <trkpt lat="43.70405" lon="3.53725">
        <ele>186</ele>
        <time>2023-04-30T09:04:29Z</time>
      </trkpt>
      <trkpt lat="43.70421" lon="3.53741">
        <ele>186</ele>
        <time>2023-04-30T09:04:32Z</time>
      </trkpt>
      <trkpt lat="43.70438" lon="3.53751">
        <ele>189</ele>
        <time>2023-04-30T09:04:35Z</time>
      </trkpt>
      <trkpt lat="43.70453" lon="3.53753">
        <ele>193</ele>
        <time>2023-04-30T09:04:38Z</time>
      </trkpt>
      <trkpt lat="43.70469" lon="3.53751">
        <ele>198</ele>
        <time>2023-04-30T09:04:41Z</time>
      </trkpt>
      <trkpt lat="43.70476" lon="3.53755">
        <ele>200</ele>
        <time>2023-04-30T09:04:42Z</time>
      </trkpt>
      <trkpt lat="43.70478" lon="3.53776">
        <ele>200</ele>
        <time>2023-04-30T09:04:45Z</time>
      </trkpt>
      <trkpt lat="43.70473" lon="3.53802">
        <ele>197</ele>
        <time>2023-04-30T09:04:48Z</time>
      </trkpt>
      <trkpt lat="43.7047" lon="3.53856">
        <ele>195</ele>
        <time>2023-04-30T09:04:55Z</time>
      </trkpt>
      <trkpt lat="43.70474" lon="3.53895">
        <ele>196</ele>
        <time>2023-04-30T09:05:00Z</time>
      </trkpt>
      <trkpt lat="43.70473" lon="3.53892">
        <ele>196</ele>
        <time>2023-04-30T09:05:01Z</time>
      </trkpt>
      <trkpt lat="43.70484" lon="3.53932">
        <ele>199</ele>
        <time>2023-04-30T09:05:06Z</time>
      </trkpt>
      <trkpt lat="43.70507" lon="3.53989">
        <ele>202</ele>
        <time>2023-04-30T09:05:15Z</time>
      </trkpt>
      <trkpt lat="43.70533" lon="3.54038">
        <ele>208</ele>
        <time>2023-04-30T09:05:23Z</time>
      </trkpt>
      <trkpt lat="43.70566" lon="3.54133">
        <ele>211</ele>
        <time>2023-04-30T09:05:36Z</time>
      </trkpt>
      <trkpt lat="43.70578" lon="3.5415">
        <ele>212</ele>
        <time>2023-04-30T09:05:39Z</time>
      </trkpt>
      <trkpt lat="43.706" lon="3.54169">
        <ele>214</ele>
        <time>2023-04-30T09:05:44Z</time>
      </trkpt>
      <trkpt lat="43.70621" lon="3.54177">
        <ele>214</ele>
        <time>2023-04-30T09:05:48Z</time>
      </trkpt>
      <trkpt lat="43.7065" lon="3.54182">
        <ele>216</ele>
        <time>2023-04-30T09:05:53Z</time>
      </trkpt>
      <trkpt lat="43.70695" lon="3.54172">
        <ele>221</ele>
        <time>2023-04-30T09:06:01Z</time>
      </trkpt>
      <trkpt lat="43.70764" lon="3.5415">
        <ele>227</ele>
        <time>2023-04-30T09:06:14Z</time>
      </trkpt>
      <trkpt lat="43.70766" lon="3.54143">
        <ele>229</ele>
        <time>2023-04-30T09:06:15Z</time>
      </trkpt>
      <trkpt lat="43.70762" lon="3.54141">
        <ele>230</ele>
        <time>2023-04-30T09:06:15Z</time>
      </trkpt>
      <trkpt lat="43.70751" lon="3.54143">
        <ele>230</ele>
        <time>2023-04-30T09:06:17Z</time>
      </trkpt>
      <trkpt lat="43.70729" lon="3.54139">
        <ele>230</ele>
        <time>2023-04-30T09:06:21Z</time>
      </trkpt>
      <trkpt lat="43.70681" lon="3.54114">
        <ele>234</ele>
        <time>2023-04-30T09:06:30Z</time>
      </trkpt>
      <trkpt lat="43.70668" lon="3.54098">
        <ele>237</ele>
        <time>2023-04-30T09:06:33Z</time>
      </trkpt>
      <trkpt lat="43.70661" lon="3.54077">
        <ele>239</ele>
        <time>2023-04-30T09:06:36Z</time>
      </trkpt>
      <trkpt lat="43.70641" lon="3.53974">
        <ele>245</ele>
        <time>2023-04-30T09:06:50Z</time>
      </trkpt>
      <trkpt lat="43.70631" lon="3.53903">
        <ele>248</ele>
        <time>2023-04-30T09:06:59Z</time>
      </trkpt>
      <trkpt lat="43.70629" lon="3.53869">
        <ele>249</ele>
        <time>2023-04-30T09:07:04Z</time>
      </trkpt>
      <trkpt lat="43.70643" lon="3.53798">
        <ele>255</ele>
        <time>2023-04-30T09:07:13Z</time>
      </trkpt>
      <trkpt lat="43.70675" lon="3.53714">
        <ele>263</ele>
        <time>2023-04-30T09:07:25Z</time>
      </trkpt>
      <trkpt lat="43.70696" lon="3.53673">
        <ele>265</ele>
        <time>2023-04-30T09:07:32Z</time>
      </trkpt>
      <trkpt lat="43.70713" lon="3.53649">
        <ele>265</ele>
        <time>2023-04-30T09:07:36Z</time>
      </trkpt>
      <trkpt lat="43.70726" lon="3.53641">
        <ele>265</ele>
        <time>2023-04-30T09:07:39Z</time>
      </trkpt>
      <trkpt lat="43.70739" lon="3.53639">
        <ele>267</ele>
        <time>2023-04-30T09:07:41Z</time>
      </trkpt>
      <trkpt lat="43.70764" lon="3.5365">
        <ele>271</ele>
        <time>2023-04-30T09:07:46Z</time>
      </trkpt>
      <trkpt lat="43.70782" lon="3.53654">
        <ele>273</ele>
        <time>2023-04-30T09:07:49Z</time>
      </trkpt>
      <trkpt lat="43.70785" lon="3.53657">
        <ele>274</ele>
        <time>2023-04-30T09:07:50Z</time>
      </trkpt>
      <trkpt lat="43.70785" lon="3.53663">
        <ele>275</ele>
        <time>2023-04-30T09:07:50Z</time>
      </trkpt>
      <trkpt lat="43.7077" lon="3.53668">
        <ele>275</ele>
        <time>2023-04-30T09:07:53Z</time>
      </trkpt>
      <trkpt lat="43.70758" lon="3.53682">
        <ele>276</ele>
        <time>2023-04-30T09:07:56Z</time>
      </trkpt>
      <trkpt lat="43.70753" lon="3.53696">
        <ele>277</ele>
        <time>2023-04-30T09:07:58Z</time>
      </trkpt>
      <trkpt lat="43.70751" lon="3.53713">
        <ele>279</ele>
        <time>2023-04-30T09:08:00Z</time>
      </trkpt>
      <trkpt lat="43.70752" lon="3.53743">
        <ele>282</ele>
        <time>2023-04-30T09:08:04Z</time>
      </trkpt>
      <trkpt lat="43.70759" lon="3.53775">
        <ele>284</ele>
        <time>2023-04-30T09:08:08Z</time>
      </trkpt>
      <trkpt lat="43.70772" lon="3.53811">
        <ele>286</ele>
        <time>2023-04-30T09:08:14Z</time>
      </trkpt>
      <trkpt lat="43.70783" lon="3.53827">
        <ele>287</ele>
        <time>2023-04-30T09:08:16Z</time>
      </trkpt>
      <trkpt lat="43.70791" lon="3.5383">
        <ele>288</ele>
        <time>2023-04-30T09:08:18Z</time>
      </trkpt>
      <trkpt lat="43.71372" lon="3.53752">
        <ele>334</ele>
        <time>2023-04-30T09:10:02Z</time>
      </trkpt>
      <trkpt lat="43.71517" lon="3.53726">
        <ele>346</ele>
        <time>2023-04-30T09:10:28Z</time>
      </trkpt>
      <trkpt lat="43.71542" lon="3.53727">
        <ele>347</ele>
        <time>2023-04-30T09:10:32Z</time>
      </trkpt>
      <trkpt lat="43.71596" lon="3.53736">
        <ele>349</ele>
        <time>2023-04-30T09:10:42Z</time>
      </trkpt>
      <trkpt lat="43.71678" lon="3.53755">
        <ele>351</ele>
        <time>2023-04-30T09:10:57Z</time>
      </trkpt>
      <trkpt lat="43.71712" lon="3.53757">
        <ele>351</ele>
        <time>2023-04-30T09:11:03Z</time>
      </trkpt>
      <trkpt lat="43.72047" lon="3.5368">
        <ele>350</ele>
        <time>2023-04-30T09:12:03Z</time>
      </trkpt>
      <trkpt lat="43.72085" lon="3.53662">
        <ele>351</ele>
        <time>2023-04-30T09:12:10Z</time>
      </trkpt>
      <trkpt lat="43.7209" lon="3.53613">
        <ele>350</ele>
        <time>2023-04-30T09:12:17Z</time>
      </trkpt>
      <trkpt lat="43.72103" lon="3.53595">
        <ele>350</ele>
        <time>2023-04-30T09:12:20Z</time>
      </trkpt>
      <trkpt lat="43.72195" lon="3.53498">
        <ele>355</ele>
        <time>2023-04-30T09:12:41Z</time>
      </trkpt>
      <trkpt lat="43.72234" lon="3.53453">
        <ele>361</ele>
        <time>2023-04-30T09:12:50Z</time>
      </trkpt>
      <trkpt lat="43.7224" lon="3.53431">
        <ele>363</ele>
        <time>2023-04-30T09:12:53Z</time>
      </trkpt>
      <trkpt lat="43.72226" lon="3.53332">
        <ele>367</ele>
        <time>2023-04-30T09:13:06Z</time>
      </trkpt>
      <trkpt lat="43.72229" lon="3.5327">
        <ele>370</ele>
        <time>2023-04-30T09:13:14Z</time>
      </trkpt>
      <trkpt lat="43.72219" lon="3.53246">
        <ele>369</ele>
        <time>2023-04-30T09:13:17Z</time>
      </trkpt>
      <trkpt lat="43.72219" lon="3.5323">
        <ele>368</ele>
        <time>2023-04-30T09:13:19Z</time>
      </trkpt>
      <trkpt lat="43.72225" lon="3.53226">
        <ele>369</ele>
        <time>2023-04-30T09:13:20Z</time>
      </trkpt>
      <trkpt lat="43.72233" lon="3.53237">
        <ele>371</ele>
        <time>2023-04-30T09:13:22Z</time>
      </trkpt>
      <trkpt lat="43.72262" lon="3.53261">
        <ele>376</ele>
        <time>2023-04-30T09:13:28Z</time>
      </trkpt>
      <trkpt lat="43.72293" lon="3.53318">
        <ele>376</ele>
        <time>2023-04-30T09:13:38Z</time>
      </trkpt>
      <trkpt lat="43.72311" lon="3.53325">
        <ele>377</ele>
        <time>2023-04-30T09:13:41Z</time>
      </trkpt>
      <trkpt lat="43.72327" lon="3.53324">
        <ele>379</ele>
        <time>2023-04-30T09:13:44Z</time>
      </trkpt>
      <trkpt lat="43.72347" lon="3.53314">
        <ele>379</ele>
        <time>2023-04-30T09:13:48Z</time>
      </trkpt>
      <trkpt lat="43.72393" lon="3.53313">
        <ele>375</ele>
        <time>2023-04-30T09:13:56Z</time>
      </trkpt>
      <trkpt lat="43.72396" lon="3.53308">
        <ele>376</ele>
        <time>2023-04-30T09:13:57Z</time>
      </trkpt>
      <trkpt lat="43.72389" lon="3.533">
        <ele>378</ele>
        <time>2023-04-30T09:13:58Z</time>
      </trkpt>
      <trkpt lat="43.72367" lon="3.53296">
        <ele>381</ele>
        <time>2023-04-30T09:14:02Z</time>
      </trkpt>
      <trkpt lat="43.72342" lon="3.53261">
        <ele>388</ele>
        <time>2023-04-30T09:14:08Z</time>
      </trkpt>
      <trkpt lat="43.72329" lon="3.53199">
        <ele>392</ele>
        <time>2023-04-30T09:14:17Z</time>
      </trkpt>
      <trkpt lat="43.72323" lon="3.53123">
        <ele>393</ele>
        <time>2023-04-30T09:14:27Z</time>
      </trkpt>
      <trkpt lat="43.72335" lon="3.53067">
        <ele>399</ele>
        <time>2023-04-30T09:14:34Z</time>
      </trkpt>
      <trkpt lat="43.72336" lon="3.53046">
        <ele>400</ele>
        <time>2023-04-30T09:14:37Z</time>
      </trkpt>
      <trkpt lat="43.7237" lon="3.52977">
        <ele>408</ele>
        <time>2023-04-30T09:14:48Z</time>
      </trkpt>
      <trkpt lat="43.72384" lon="3.52958">
        <ele>411</ele>
        <time>2023-04-30T09:14:51Z</time>
      </trkpt>
      <trkpt lat="43.72388" lon="3.52931">
        <ele>411</ele>
        <time>2023-04-30T09:14:55Z</time>
      </trkpt>
      <trkpt lat="43.72398" lon="3.52921">
        <ele>413</ele>
        <time>2023-04-30T09:14:57Z</time>
      </trkpt>
      <trkpt lat="43.72404" lon="3.52921">
        <ele>414</ele>
        <time>2023-04-30T09:14:58Z</time>
      </trkpt>
      <trkpt lat="43.72406" lon="3.5293">
        <ele>415</ele>
        <time>2023-04-30T09:14:59Z</time>
      </trkpt>
      <trkpt lat="43.72402" lon="3.52951">
        <ele>415</ele>
        <time>2023-04-30T09:15:02Z</time>
      </trkpt>
      <trkpt lat="43.7239" lon="3.52975">
        <ele>412</ele>
        <time>2023-04-30T09:15:06Z</time>
      </trkpt>
      <trkpt lat="43.72383" lon="3.53038">
        <ele>410</ele>
        <time>2023-04-30T09:15:14Z</time>
      </trkpt>
      <trkpt lat="43.72385" lon="3.53051">
        <ele>410</ele>
        <time>2023-04-30T09:15:15Z</time>
      </trkpt>
      <trkpt lat="43.72393" lon="3.53064">
        <ele>412</ele>
        <time>2023-04-30T09:15:18Z</time>
      </trkpt>
      <trkpt lat="43.72401" lon="3.53072">
        <ele>413</ele>
        <time>2023-04-30T09:15:19Z</time>
      </trkpt>
      <trkpt lat="43.72441" lon="3.53093">
        <ele>415</ele>
        <time>2023-04-30T09:15:27Z</time>
      </trkpt>
      <trkpt lat="43.7245" lon="3.53087">
        <ele>416</ele>
        <time>2023-04-30T09:15:29Z</time>
      </trkpt>
      <trkpt lat="43.72443" lon="3.53069">
        <ele>418</ele>
        <time>2023-04-30T09:15:31Z</time>
      </trkpt>
      <trkpt lat="43.72434" lon="3.53057">
        <ele>418</ele>
        <time>2023-04-30T09:15:34Z</time>
      </trkpt>
      <trkpt lat="43.72431" lon="3.53043">
        <ele>419</ele>
        <time>2023-04-30T09:15:36Z</time>
      </trkpt>
      <trkpt lat="43.72438" lon="3.53016">
        <ele>422</ele>
        <time>2023-04-30T09:15:39Z</time>
      </trkpt>
      <trkpt lat="43.7246" lon="3.52982">
        <ele>429</ele>
        <time>2023-04-30T09:15:45Z</time>
      </trkpt>
      <trkpt lat="43.72471" lon="3.52943">
        <ele>433</ele>
        <time>2023-04-30T09:15:50Z</time>
      </trkpt>
      <trkpt lat="43.72475" lon="3.5294">
        <ele>434</ele>
        <time>2023-04-30T09:15:51Z</time>
      </trkpt>
      <trkpt lat="43.72478" lon="3.52946">
        <ele>435</ele>
        <time>2023-04-30T09:15:52Z</time>
      </trkpt>
      <trkpt lat="43.72477" lon="3.52958">
        <ele>434</ele>
        <time>2023-04-30T09:15:54Z</time>
      </trkpt>
      <trkpt lat="43.72485" lon="3.52991">
        <ele>434</ele>
        <time>2023-04-30T09:15:58Z</time>
      </trkpt>
      <trkpt lat="43.72491" lon="3.52996">
        <ele>435</ele>
        <time>2023-04-30T09:16:00Z</time>
      </trkpt>
      <trkpt lat="43.72494" lon="3.52994">
        <ele>436</ele>
        <time>2023-04-30T09:16:00Z</time>
      </trkpt>
      <trkpt lat="43.72494" lon="3.52972">
        <ele>438</ele>
        <time>2023-04-30T09:16:03Z</time>
      </trkpt>
      <trkpt lat="43.7251" lon="3.52875">
        <ele>446</ele>
        <time>2023-04-30T09:16:16Z</time>
      </trkpt>
      <trkpt lat="43.72515" lon="3.52817">
        <ele>448</ele>
        <time>2023-04-30T09:16:23Z</time>
      </trkpt>
      <trkpt lat="43.72532" lon="3.52769">
        <ele>454</ele>
        <time>2023-04-30T09:16:30Z</time>
      </trkpt>
      <trkpt lat="43.72531" lon="3.5276">
        <ele>454</ele>
        <time>2023-04-30T09:16:31Z</time>
      </trkpt>
      <trkpt lat="43.7252" lon="3.52727">
        <ele>450</ele>
        <time>2023-04-30T09:16:36Z</time>
      </trkpt>
      <trkpt lat="43.72521" lon="3.52708">
        <ele>450</ele>
        <time>2023-04-30T09:16:38Z</time>
      </trkpt>
      <trkpt lat="43.72535" lon="3.52662">
        <ele>454</ele>
        <time>2023-04-30T09:16:45Z</time>
      </trkpt>
      <trkpt lat="43.7255" lon="3.52639">
        <ele>457</ele>
        <time>2023-04-30T09:16:49Z</time>
      </trkpt>
      <trkpt lat="43.7264" lon="3.52526">
        <ele>473</ele>
        <time>2023-04-30T09:17:10Z</time>
      </trkpt>
      <trkpt lat="43.72664" lon="3.5247">
        <ele>475</ele>
        <time>2023-04-30T09:17:19Z</time>
      </trkpt>
      <trkpt lat="43.7269" lon="3.5243">
        <ele>474</ele>
        <time>2023-04-30T09:17:26Z</time>
      </trkpt>
      <trkpt lat="43.72743" lon="3.52396">
        <ele>483</ele>
        <time>2023-04-30T09:17:36Z</time>
      </trkpt>
      <trkpt lat="43.72761" lon="3.5238">
        <ele>483</ele>
        <time>2023-04-30T09:17:40Z</time>
      </trkpt>
      <trkpt lat="43.72789" lon="3.52341">
        <ele>482</ele>
        <time>2023-04-30T09:17:47Z</time>
      </trkpt>
      <trkpt lat="43.72795" lon="3.52309">
        <ele>485</ele>
        <time>2023-04-30T09:17:51Z</time>
      </trkpt>
      <trkpt lat="43.72813" lon="3.5227">
        <ele>489</ele>
        <time>2023-04-30T09:17:57Z</time>
      </trkpt>
      <trkpt lat="43.72836" lon="3.52239">
        <ele>494</ele>
        <time>2023-04-30T09:18:03Z</time>
      </trkpt>
      <trkpt lat="43.72899" lon="3.52182">
        <ele>505</ele>
        <time>2023-04-30T09:18:16Z</time>
      </trkpt>
      <trkpt lat="43.72918" lon="3.52176">
        <ele>506</ele>
        <time>2023-04-30T09:18:20Z</time>
      </trkpt>
      <trkpt lat="43.72937" lon="3.52165">
        <ele>508</ele>
        <time>2023-04-30T09:18:23Z</time>
      </trkpt>
      <trkpt lat="43.72957" lon="3.52145">
        <ele>513</ele>
        <time>2023-04-30T09:18:28Z</time>
      </trkpt>
      <trkpt lat="43.7297" lon="3.52137">
        <ele>515</ele>
        <time>2023-04-30T09:18:30Z</time>
      </trkpt>
      <trkpt lat="43.72972" lon="3.5213">
        <ele>516</ele>
        <time>2023-04-30T09:18:31Z</time>
      </trkpt>
      <trkpt lat="43.72969" lon="3.52125">
        <ele>517</ele>
        <time>2023-04-30T09:18:32Z</time>
      </trkpt>
      <trkpt lat="43.72961" lon="3.52125">
        <ele>516</ele>
        <time>2023-04-30T09:18:34Z</time>
      </trkpt>
      <trkpt lat="43.72951" lon="3.52129">
        <ele>515</ele>
        <time>2023-04-30T09:18:35Z</time>
      </trkpt>
      <trkpt lat="43.72932" lon="3.52132">
        <ele>513</ele>
        <time>2023-04-30T09:18:39Z</time>
      </trkpt>
      <trkpt lat="43.7292" lon="3.52125">
        <ele>514</ele>
        <time>2023-04-30T09:18:41Z</time>
      </trkpt>
      <trkpt lat="43.72917" lon="3.52082">
        <ele>520</ele>
        <time>2023-04-30T09:18:47Z</time>
      </trkpt>
      <trkpt lat="43.72921" lon="3.52072">
        <ele>521</ele>
        <time>2023-04-30T09:18:48Z</time>
      </trkpt>
      <trkpt lat="43.72919" lon="3.52059">
        <ele>523</ele>
        <time>2023-04-30T09:18:50Z</time>
      </trkpt>
      <trkpt lat="43.72913" lon="3.52054">
        <ele>523</ele>
        <time>2023-04-30T09:18:51Z</time>
      </trkpt>
      <trkpt lat="43.72898" lon="3.52056">
        <ele>522</ele>
        <time>2023-04-30T09:18:54Z</time>
      </trkpt>
      <trkpt lat="43.72885" lon="3.52044">
        <ele>523</ele>
        <time>2023-04-30T09:18:57Z</time>
      </trkpt>
      <trkpt lat="43.72878" lon="3.52021">
        <ele>525</ele>
        <time>2023-04-30T09:19:00Z</time>
      </trkpt>
      <trkpt lat="43.7288" lon="3.52006">
        <ele>527</ele>
        <time>2023-04-30T09:19:02Z</time>
      </trkpt>
      <trkpt lat="43.72887" lon="3.51994">
        <ele>528</ele>
        <time>2023-04-30T09:19:04Z</time>
      </trkpt>
      <trkpt lat="43.72887" lon="3.51985">
        <ele>528</ele>
        <time>2023-04-30T09:19:05Z</time>
      </trkpt>
      <trkpt lat="43.72881" lon="3.51977">
        <ele>529</ele>
        <time>2023-04-30T09:19:06Z</time>
      </trkpt>
      <trkpt lat="43.72875" lon="3.51979">
        <ele>529</ele>
        <time>2023-04-30T09:19:07Z</time>
      </trkpt>
      <trkpt lat="43.72854" lon="3.52015">
        <ele>526</ele>
        <time>2023-04-30T09:19:13Z</time>
      </trkpt>
      <trkpt lat="43.72842" lon="3.52022">
        <ele>525</ele>
        <time>2023-04-30T09:19:16Z</time>
      </trkpt>
      <trkpt lat="43.72835" lon="3.5202">
        <ele>525</ele>
        <time>2023-04-30T09:19:17Z</time>
      </trkpt>
      <trkpt lat="43.72823" lon="3.52009">
        <ele>526</ele>
        <time>2023-04-30T09:19:20Z</time>
      </trkpt>
      <trkpt lat="43.72795" lon="3.51996">
        <ele>525</ele>
        <time>2023-04-30T09:19:25Z</time>
      </trkpt>
      <trkpt lat="43.72755" lon="3.51988">
        <ele>524</ele>
        <time>2023-04-30T09:19:32Z</time>
      </trkpt>
      <trkpt lat="43.72752" lon="3.5198">
        <ele>524</ele>
        <time>2023-04-30T09:19:33Z</time>
      </trkpt>
      <trkpt lat="43.72749" lon="3.51924">
        <ele>526</ele>
        <time>2023-04-30T09:19:40Z</time>
      </trkpt>
      <trkpt lat="43.72744" lon="3.51895">
        <ele>527</ele>
        <time>2023-04-30T09:19:44Z</time>
      </trkpt>
      <trkpt lat="43.72734" lon="3.51883">
        <ele>527</ele>
        <time>2023-04-30T09:19:47Z</time>
      </trkpt>
      <trkpt lat="43.72722" lon="3.51879">
        <ele>526</ele>
        <time>2023-04-30T09:19:49Z</time>
      </trkpt>
      <trkpt lat="43.72714" lon="3.51883">
        <ele>525</ele>
        <time>2023-04-30T09:19:50Z</time>
      </trkpt>
      <trkpt lat="43.72696" lon="3.51904">
        <ele>522</ele>
        <time>2023-04-30T09:19:54Z</time>
      </trkpt>
      <trkpt lat="43.72675" lon="3.51935">
        <ele>518</ele>
        <time>2023-04-30T09:20:00Z</time>
      </trkpt>
      <trkpt lat="43.72636" lon="3.51981">
        <ele>511</ele>
        <time>2023-04-30T09:20:09Z</time>
      </trkpt>
      <trkpt lat="43.72612" lon="3.52">
        <ele>506</ele>
        <time>2023-04-30T09:20:14Z</time>
      </trkpt>
      <trkpt lat="43.72585" lon="3.52001">
        <ele>504</ele>
        <time>2023-04-30T09:20:19Z</time>
      </trkpt>
      <trkpt lat="43.72557" lon="3.51989">
        <ele>501</ele>
        <time>2023-04-30T09:20:24Z</time>
      </trkpt>
      <trkpt lat="43.72538" lon="3.51972">
        <ele>501</ele>
        <time>2023-04-30T09:20:28Z</time>
      </trkpt>
      <trkpt lat="43.72495" lon="3.5192">
        <ele>502</ele>
        <time>2023-04-30T09:20:38Z</time>
      </trkpt>
      <trkpt lat="43.72477" lon="3.51905">
        <ele>501</ele>
        <time>2023-04-30T09:20:42Z</time>
      </trkpt>
      <trkpt lat="43.72446" lon="3.519">
        <ele>497</ele>
        <time>2023-04-30T09:20:47Z</time>
      </trkpt>
      <trkpt lat="43.72438" lon="3.51895">
        <ele>496</ele>
        <time>2023-04-30T09:20:49Z</time>
      </trkpt>
      <trkpt lat="43.72432" lon="3.5188">
        <ele>496</ele>
        <time>2023-04-30T09:20:51Z</time>
      </trkpt>
      <trkpt lat="43.72428" lon="3.51829">
        <ele>495</ele>
        <time>2023-04-30T09:20:58Z</time>
      </trkpt>
      <trkpt lat="43.7244" lon="3.51793">
        <ele>491</ele>
        <time>2023-04-30T09:21:03Z</time>
      </trkpt>
      <trkpt lat="43.72481" lon="3.51711">
        <ele>492</ele>
        <time>2023-04-30T09:21:16Z</time>
      </trkpt>
      <trkpt lat="43.72492" lon="3.5167">
        <ele>490</ele>
        <time>2023-04-30T09:21:21Z</time>
      </trkpt>
      <trkpt lat="43.72516" lon="3.51628">
        <ele>495</ele>
        <time>2023-04-30T09:21:28Z</time>
      </trkpt>
      <trkpt lat="43.72514" lon="3.516">
        <ele>495</ele>
        <time>2023-04-30T09:21:32Z</time>
      </trkpt>
      <trkpt lat="43.72509" lon="3.5158">
        <ele>494</ele>
        <time>2023-04-30T09:21:35Z</time>
      </trkpt>
      <trkpt lat="43.72495" lon="3.51571">
        <ele>493</ele>
        <time>2023-04-30T09:21:37Z</time>
      </trkpt>
      <trkpt lat="43.72455" lon="3.51563">
        <ele>493</ele>
        <time>2023-04-30T09:21:45Z</time>
      </trkpt>
      <trkpt lat="43.72429" lon="3.5157">
        <ele>491</ele>
        <time>2023-04-30T09:21:49Z</time>
      </trkpt>
      <trkpt lat="43.72397" lon="3.5157">
        <ele>489</ele>
        <time>2023-04-30T09:21:55Z</time>
      </trkpt>
      <trkpt lat="43.72369" lon="3.51561">
        <ele>488</ele>
        <time>2023-04-30T09:22:00Z</time>
      </trkpt>
      <trkpt lat="43.72346" lon="3.5155">
        <ele>488</ele>
        <time>2023-04-30T09:22:04Z</time>
      </trkpt>
      <trkpt lat="43.72335" lon="3.51551">
        <ele>487</ele>
        <time>2023-04-30T09:22:06Z</time>
      </trkpt>
      <trkpt lat="43.72326" lon="3.51558">
        <ele>484</ele>
        <time>2023-04-30T09:22:08Z</time>
      </trkpt>
      <trkpt lat="43.72312" lon="3.51559">
        <ele>481</ele>
        <time>2023-04-30T09:22:11Z</time>
      </trkpt>
      <trkpt lat="43.72297" lon="3.5155">
        <ele>479</ele>
        <time>2023-04-30T09:22:14Z</time>
      </trkpt>
      <trkpt lat="43.72291" lon="3.51529">
        <ele>479</ele>
        <time>2023-04-30T09:22:17Z</time>
      </trkpt>
      <trkpt lat="43.7229" lon="3.51506">
        <ele>481</ele>
        <time>2023-04-30T09:22:19Z</time>
      </trkpt>
      <trkpt lat="43.72307" lon="3.51442">
        <ele>482</ele>
        <time>2023-04-30T09:22:28Z</time>
      </trkpt>
      <trkpt lat="43.72303" lon="3.5142">
        <ele>480</ele>
        <time>2023-04-30T09:22:31Z</time>
      </trkpt>
      <trkpt lat="43.7229" lon="3.51385">
        <ele>477</ele>
        <time>2023-04-30T09:22:36Z</time>
      </trkpt>
      <trkpt lat="43.72278" lon="3.51369">
        <ele>475</ele>
        <time>2023-04-30T09:22:39Z</time>
      </trkpt>
      <trkpt lat="43.72243" lon="3.51338">
        <ele>469</ele>
        <time>2023-04-30T09:22:47Z</time>
      </trkpt>
      <trkpt lat="43.72229" lon="3.51333">
        <ele>467</ele>
        <time>2023-04-30T09:22:49Z</time>
      </trkpt>
      <trkpt lat="43.72209" lon="3.51333">
        <ele>464</ele>
        <time>2023-04-30T09:22:53Z</time>
      </trkpt>
      <trkpt lat="43.72194" lon="3.51327">
        <ele>461</ele>
        <time>2023-04-30T09:22:55Z</time>
      </trkpt>
      <trkpt lat="43.7218" lon="3.51314">
        <ele>458</ele>
        <time>2023-04-30T09:22:58Z</time>
      </trkpt>
      <trkpt lat="43.72174" lon="3.51302">
        <ele>456</ele>
        <time>2023-04-30T09:23:00Z</time>
      </trkpt>
      <trkpt lat="43.72172" lon="3.51277">
        <ele>455</ele>
        <time>2023-04-30T09:23:04Z</time>
      </trkpt>
      <trkpt lat="43.7217" lon="3.51272">
        <ele>454</ele>
        <time>2023-04-30T09:23:04Z</time>
      </trkpt>
      <trkpt lat="43.72165" lon="3.51271">
        <ele>454</ele>
        <time>2023-04-30T09:23:05Z</time>
      </trkpt>
      <trkpt lat="43.72123" lon="3.51284">
        <ele>449</ele>
        <time>2023-04-30T09:23:13Z</time>
      </trkpt>
      <trkpt lat="43.72102" lon="3.513">
        <ele>447</ele>
        <time>2023-04-30T09:23:17Z</time>
      </trkpt>
      <trkpt lat="43.72058" lon="3.51327">
        <ele>441</ele>
        <time>2023-04-30T09:23:26Z</time>
      </trkpt>
      <trkpt lat="43.72024" lon="3.5133">
        <ele>437</ele>
        <time>2023-04-30T09:23:32Z</time>
      </trkpt>
      <trkpt lat="43.71933" lon="3.51398">
        <ele>424</ele>
        <time>2023-04-30T09:23:50Z</time>
      </trkpt>
      <trkpt lat="43.71905" lon="3.51409">
        <ele>423</ele>
        <time>2023-04-30T09:23:55Z</time>
      </trkpt>
      <trkpt lat="43.7188" lon="3.51414">
        <ele>423</ele>
        <time>2023-04-30T09:24:00Z</time>
      </trkpt>
      <trkpt lat="43.71832" lon="3.51457">
        <ele>422</ele>
        <time>2023-04-30T09:24:10Z</time>
      </trkpt>
      <trkpt lat="43.71779" lon="3.51495">
        <ele>424</ele>
        <time>2023-04-30T09:24:21Z</time>
      </trkpt>
      <trkpt lat="43.71726" lon="3.51532">
        <ele>426</ele>
        <time>2023-04-30T09:24:31Z</time>
      </trkpt>
      <trkpt lat="43.71679" lon="3.51554">
        <ele>426</ele>
        <time>2023-04-30T09:24:40Z</time>
      </trkpt>
      <trkpt lat="43.71633" lon="3.5159">
        <ele>424</ele>
        <time>2023-04-30T09:24:49Z</time>
      </trkpt>
      <trkpt lat="43.71575" lon="3.51743">
        <ele>407</ele>
        <time>2023-04-30T09:25:12Z</time>
      </trkpt>
      <trkpt lat="43.71707" lon="3.51938">
        <ele>381</ele>
        <time>2023-04-30T09:25:46Z</time>
      </trkpt>
      <trkpt lat="43.71532" lon="3.52142">
        <ele>366</ele>
        <time>2023-04-30T09:26:27Z</time>
      </trkpt>
      <trkpt lat="43.7142" lon="3.52234">
        <ele>350</ele>
        <time>2023-04-30T09:26:50Z</time>
      </trkpt>
      <trkpt lat="43.71383" lon="3.52363">
        <ele>337</ele>
        <time>2023-04-30T09:27:08Z</time>
      </trkpt>
      <trkpt lat="43.71282" lon="3.52464">
        <ele>329</ele>
        <time>2023-04-30T09:27:30Z</time>
      </trkpt>
      <trkpt lat="43.71192" lon="3.52528">
        <ele>325</ele>
        <time>2023-04-30T09:27:48Z</time>
      </trkpt>
      <trkpt lat="43.71135" lon="3.52665">
        <ele>323</ele>
        <time>2023-04-30T09:28:08Z</time>
      </trkpt>
      <trkpt lat="43.71104" lon="3.52768">
        <ele>312</ele>
        <time>2023-04-30T09:28:23Z</time>
      </trkpt>
      <trkpt lat="43.71042" lon="3.52846">
        <ele>301</ele>
        <time>2023-04-30T09:28:38Z</time>
      </trkpt>
      <trkpt lat="43.70933" lon="3.52837">
        <ele>297</ele>
        <time>2023-04-30T09:28:57Z</time>
      </trkpt>
      <trkpt lat="43.70846" lon="3.52605">
        <ele>277</ele>
        <time>2023-04-30T09:29:31Z</time>
      </trkpt>
      <trkpt lat="43.70905" lon="3.52382">
        <ele>263</ele>
        <time>2023-04-30T09:30:01Z</time>
      </trkpt>
      <trkpt lat="43.70815" lon="3.52455">
        <ele>254</ele>
        <time>2023-04-30T09:30:20Z</time>
      </trkpt>
      <trkpt lat="43.70719" lon="3.52652">
        <ele>246</ele>
        <time>2023-04-30T09:30:50Z</time>
      </trkpt>
      <trkpt lat="43.70665" lon="3.5269">
        <ele>239</ele>
        <time>2023-04-30T09:31:01Z</time>
      </trkpt>
      <trkpt lat="43.70635" lon="3.52644">
        <ele>232</ele>
        <time>2023-04-30T09:31:09Z</time>
      </trkpt>
      <trkpt lat="43.70582" lon="3.52583">
        <ele>224</ele>
        <time>2023-04-30T09:31:21Z</time>
      </trkpt>
      <trkpt lat="43.70324" lon="3.52618">
        <ele>193</ele>
        <time>2023-04-30T09:32:07Z</time>
      </trkpt>
      <trkpt lat="43.70158" lon="3.52515">
        <ele>167</ele>
        <time>2023-04-30T09:32:40Z</time>
      </trkpt>
      <trkpt lat="43.70064" lon="3.52387">
        <ele>154</ele>
        <time>2023-04-30T09:33:03Z</time>
      </trkpt>
      <trkpt lat="43.69934" lon="3.52288">
        <ele>134</ele>
        <time>2023-04-30T09:33:30Z</time>
      </trkpt>
      <trkpt lat="43.70024" lon="3.52099">
        <ele>126</ele>
        <time>2023-04-30T09:33:59Z</time>
      </trkpt>
      <trkpt lat="43.69996" lon="3.51897">
        <ele>128</ele>
        <time>2023-04-30T09:34:25Z</time>
      </trkpt>
      <trkpt lat="43.69943" lon="3.5179">
        <ele>126</ele>
        <time>2023-04-30T09:34:42Z</time>
      </trkpt>
      <trkpt lat="43.69953" lon="3.51494">
        <ele>127</ele>
        <time>2023-04-30T09:35:20Z</time>
      </trkpt>
      <trkpt lat="43.70015" lon="3.51279">
        <ele>130</ele>
        <time>2023-04-30T09:35:50Z</time>
      </trkpt>
      <trkpt lat="43.70044" lon="3.50899">
        <ele>137</ele>
        <time>2023-04-30T09:36:39Z</time>
      </trkpt>
      <trkpt lat="43.70087" lon="3.50838">
        <ele>141</ele>
        <time>2023-04-30T09:36:50Z</time>
      </trkpt>
      <trkpt lat="43.70108" lon="3.50653">
        <ele>141</ele>
        <time>2023-04-30T09:37:14Z</time>
      </trkpt>
      <trkpt lat="43.70009" lon="3.50614">
        <ele>134</ele>
        <time>2023-04-30T09:37:32Z</time>
      </trkpt>
      <trkpt lat="43.70037" lon="3.50524">
        <ele>135</ele>
        <time>2023-04-30T09:37:45Z</time>
      </trkpt>
      <trkpt lat="43.70105" lon="3.50429">
        <ele>140</ele>
        <time>2023-04-30T09:38:02Z</time>
      </trkpt>
      <trkpt lat="43.7013" lon="3.50251">
        <ele>140</ele>
        <time>2023-04-30T09:38:25Z</time>
      </trkpt>
      <trkpt lat="43.70179" lon="3.50153">
        <ele>142</ele>
        <time>2023-04-30T09:38:41Z</time>
      </trkpt>
      <trkpt lat="43.70181" lon="3.50035">
        <ele>146</ele>
        <time>2023-04-30T09:38:56Z</time>
      </trkpt>
      <trkpt lat="43.7015" lon="3.49902">
        <ele>158</ele>
        <time>2023-04-30T09:39:14Z</time>
      </trkpt>
      <trkpt lat="43.70175" lon="3.50045">
        <ele>146</ele>
        <time>2023-04-30T09:39:33Z</time>
      </trkpt>
      <trkpt lat="43.7014" lon="3.49764">
        <ele>171</ele>
        <time>2023-04-30T09:40:10Z</time>
      </trkpt>
      <trkpt lat="43.70206" lon="3.49522">
        <ele>176</ele>
        <time>2023-04-30T09:40:43Z</time>
      </trkpt>
      <trkpt lat="43.70376" lon="3.49286">
        <ele>186</ele>
        <time>2023-04-30T09:41:26Z</time>
      </trkpt>
      <trkpt lat="43.70441" lon="3.49226">
        <ele>189</ele>
        <time>2023-04-30T09:41:40Z</time>
      </trkpt>
      <trkpt lat="43.70573" lon="3.49121">
        <ele>196</ele>
        <time>2023-04-30T09:42:07Z</time>
      </trkpt>
      <trkpt lat="43.70638" lon="3.49112">
        <ele>196</ele>
        <time>2023-04-30T09:42:18Z</time>
      </trkpt>
      <trkpt lat="43.70767" lon="3.49157">
        <ele>202</ele>
        <time>2023-04-30T09:42:42Z</time>
      </trkpt>
      <trkpt lat="43.70873" lon="3.49135">
        <ele>209</ele>
        <time>2023-04-30T09:43:01Z</time>
      </trkpt>
      <trkpt lat="43.71025" lon="3.49063">
        <ele>206</ele>
        <time>2023-04-30T09:43:30Z</time>
      </trkpt>
      <trkpt lat="43.71072" lon="3.49012">
        <ele>215</ele>
        <time>2023-04-30T09:43:40Z</time>
      </trkpt>
      <trkpt lat="43.71075" lon="3.49006">
        <ele>217</ele>
        <time>2023-04-30T09:43:41Z</time>
      </trkpt>
      <trkpt lat="43.71073" lon="3.48989">
        <ele>218</ele>
        <time>2023-04-30T09:43:43Z</time>
      </trkpt>
      <trkpt lat="43.71041" lon="3.48939">
        <ele>214</ele>
        <time>2023-04-30T09:43:52Z</time>
      </trkpt>
      <trkpt lat="43.71041" lon="3.48925">
        <ele>215</ele>
        <time>2023-04-30T09:43:54Z</time>
      </trkpt>
      <trkpt lat="43.71048" lon="3.48916">
        <ele>218</ele>
        <time>2023-04-30T09:43:55Z</time>
      </trkpt>
      <trkpt lat="43.71099" lon="3.48884">
        <ele>232</ele>
        <time>2023-04-30T09:44:05Z</time>
      </trkpt>
      <trkpt lat="43.71114" lon="3.4887">
        <ele>236</ele>
        <time>2023-04-30T09:44:09Z</time>
      </trkpt>
      <trkpt lat="43.71123" lon="3.48858">
        <ele>238</ele>
        <time>2023-04-30T09:44:11Z</time>
      </trkpt>
      <trkpt lat="43.71137" lon="3.48829">
        <ele>239</ele>
        <time>2023-04-30T09:44:15Z</time>
      </trkpt>
      <trkpt lat="43.71141" lon="3.48804">
        <ele>240</ele>
        <time>2023-04-30T09:44:19Z</time>
      </trkpt>
      <trkpt lat="43.71139" lon="3.48791">
        <ele>239</ele>
        <time>2023-04-30T09:44:20Z</time>
      </trkpt>
      <trkpt lat="43.71147" lon="3.48748">
        <ele>239</ele>
        <time>2023-04-30T09:44:26Z</time>
      </trkpt>
      <trkpt lat="43.71157" lon="3.48711">
        <ele>243</ele>
        <time>2023-04-30T09:44:31Z</time>
      </trkpt>
      <trkpt lat="43.71173" lon="3.4868">
        <ele>248</ele>
        <time>2023-04-30T09:44:36Z</time>
      </trkpt>
      <trkpt lat="43.71184" lon="3.48675">
        <ele>252</ele>
        <time>2023-04-30T09:44:38Z</time>
      </trkpt>
      <trkpt lat="43.7119" lon="3.4868">
        <ele>253</ele>
        <time>2023-04-30T09:44:39Z</time>
      </trkpt>
      <trkpt lat="43.71189" lon="3.48697">
        <ele>252</ele>
        <time>2023-04-30T09:44:42Z</time>
      </trkpt>
      <trkpt lat="43.71174" lon="3.4875">
        <ele>243</ele>
        <time>2023-04-30T09:44:49Z</time>
      </trkpt>
      <trkpt lat="43.71174" lon="3.48758">
        <ele>244</ele>
        <time>2023-04-30T09:44:50Z</time>
      </trkpt>
      <trkpt lat="43.71176" lon="3.48761">
        <ele>245</ele>
        <time>2023-04-30T09:44:50Z</time>
      </trkpt>
      <trkpt lat="43.7118" lon="3.48761">
        <ele>247</ele>
        <time>2023-04-30T09:44:51Z</time>
      </trkpt>
      <trkpt lat="43.71186" lon="3.48755">
        <ele>249</ele>
        <time>2023-04-30T09:44:52Z</time>
      </trkpt>
      <trkpt lat="43.71283" lon="3.48541">
        <ele>283</ele>
        <time>2023-04-30T09:45:25Z</time>
      </trkpt>
      <trkpt lat="43.71302" lon="3.48505">
        <ele>287</ele>
        <time>2023-04-30T09:45:31Z</time>
      </trkpt>
      <trkpt lat="43.71325" lon="3.48432">
        <ele>289</ele>
        <time>2023-04-30T09:45:41Z</time>
      </trkpt>
      <trkpt lat="43.71336" lon="3.48413">
        <ele>289</ele>
        <time>2023-04-30T09:45:44Z</time>
      </trkpt>
      <trkpt lat="43.71365" lon="3.48379">
        <ele>294</ele>
        <time>2023-04-30T09:45:51Z</time>
      </trkpt>
      <trkpt lat="43.71374" lon="3.4836">
        <ele>295</ele>
        <time>2023-04-30T09:45:54Z</time>
      </trkpt>
      <trkpt lat="43.71382" lon="3.48331">
        <ele>296</ele>
        <time>2023-04-30T09:45:58Z</time>
      </trkpt>
      <trkpt lat="43.71388" lon="3.48296">
        <ele>299</ele>
        <time>2023-04-30T09:46:02Z</time>
      </trkpt>
      <trkpt lat="43.7141" lon="3.48226">
        <ele>303</ele>
        <time>2023-04-30T09:46:12Z</time>
      </trkpt>
      <trkpt lat="43.71425" lon="3.4819">
        <ele>305</ele>
        <time>2023-04-30T09:46:17Z</time>
      </trkpt>
      <trkpt lat="43.71459" lon="3.48131">
        <ele>309</ele>
        <time>2023-04-30T09:46:27Z</time>
      </trkpt>
      <trkpt lat="43.71506" lon="3.48062">
        <ele>309</ele>
        <time>2023-04-30T09:46:39Z</time>
      </trkpt>
      <trkpt lat="43.71515" lon="3.48038">
        <ele>310</ele>
        <time>2023-04-30T09:46:43Z</time>
      </trkpt>
      <trkpt lat="43.71517" lon="3.48013">
        <ele>310</ele>
        <time>2023-04-30T09:46:46Z</time>
      </trkpt>
      <trkpt lat="43.71508" lon="3.47993">
        <ele>311</ele>
        <time>2023-04-30T09:46:49Z</time>
      </trkpt>
      <trkpt lat="43.71488" lon="3.4798">
        <ele>313</ele>
        <time>2023-04-30T09:46:53Z</time>
      </trkpt>
      <trkpt lat="43.71488" lon="3.47962">
        <ele>313</ele>
        <time>2023-04-30T09:46:55Z</time>
      </trkpt>
      <trkpt lat="43.71558" lon="3.47903">
        <ele>313</ele>
        <time>2023-04-30T09:47:10Z</time>
      </trkpt>
      <trkpt lat="43.71562" lon="3.47888">
        <ele>314</ele>
        <time>2023-04-30T09:47:12Z</time>
      </trkpt>
      <trkpt lat="43.71559" lon="3.47871">
        <ele>315</ele>
        <time>2023-04-30T09:47:14Z</time>
      </trkpt>
      <trkpt lat="43.71553" lon="3.47862">
        <ele>315</ele>
        <time>2023-04-30T09:47:16Z</time>
      </trkpt>
      <trkpt lat="43.71541" lon="3.47851">
        <ele>317</ele>
        <time>2023-04-30T09:47:18Z</time>
      </trkpt>
      <trkpt lat="43.71527" lon="3.47847">
        <ele>317</ele>
        <time>2023-04-30T09:47:21Z</time>
      </trkpt>
      <trkpt lat="43.7152" lon="3.47843">
        <ele>318</ele>
        <time>2023-04-30T09:47:22Z</time>
      </trkpt>
      <trkpt lat="43.71516" lon="3.47837">
        <ele>318</ele>
        <time>2023-04-30T09:47:23Z</time>
      </trkpt>
      <trkpt lat="43.71515" lon="3.47827">
        <ele>319</ele>
        <time>2023-04-30T09:47:25Z</time>
      </trkpt>
      <trkpt lat="43.71525" lon="3.47773">
        <ele>321</ele>
        <time>2023-04-30T09:47:32Z</time>
      </trkpt>
      <trkpt lat="43.71525" lon="3.47755">
        <ele>322</ele>
        <time>2023-04-30T09:47:34Z</time>
      </trkpt>
      <trkpt lat="43.7149" lon="3.47753">
        <ele>320</ele>
        <time>2023-04-30T09:47:40Z</time>
      </trkpt>
      <trkpt lat="43.71467" lon="3.47744">
        <ele>317</ele>
        <time>2023-04-30T09:47:45Z</time>
      </trkpt>
      <trkpt lat="43.7146" lon="3.47732">
        <ele>314</ele>
        <time>2023-04-30T09:47:47Z</time>
      </trkpt>
      <trkpt lat="43.71464" lon="3.47722">
        <ele>313</ele>
        <time>2023-04-30T09:47:48Z</time>
      </trkpt>
      <trkpt lat="43.71497" lon="3.47706">
        <ele>314</ele>
        <time>2023-04-30T09:47:54Z</time>
      </trkpt>
      <trkpt lat="43.71537" lon="3.47682">
        <ele>315</ele>
        <time>2023-04-30T09:48:02Z</time>
      </trkpt>
      <trkpt lat="43.7157" lon="3.4767">
        <ele>317</ele>
        <time>2023-04-30T09:48:08Z</time>
      </trkpt>
      <trkpt lat="43.71594" lon="3.47666">
        <ele>320</ele>
        <time>2023-04-30T09:48:12Z</time>
      </trkpt>
      <trkpt lat="43.71603" lon="3.47662">
        <ele>320</ele>
        <time>2023-04-30T09:48:14Z</time>
      </trkpt>
      <trkpt lat="43.71637" lon="3.4763">
        <ele>318</ele>
        <time>2023-04-30T09:48:21Z</time>
      </trkpt>
      <trkpt lat="43.7164" lon="3.47618">
        <ele>315</ele>
        <time>2023-04-30T09:48:23Z</time>
      </trkpt>
      <trkpt lat="43.71656" lon="3.47609">
        <ele>316</ele>
        <time>2023-04-30T09:48:26Z</time>
      </trkpt>
      <trkpt lat="43.71674" lon="3.47594">
        <ele>317</ele>
        <time>2023-04-30T09:48:30Z</time>
      </trkpt>
      <trkpt lat="43.71756" lon="3.4749">
        <ele>327</ele>
        <time>2023-04-30T09:48:50Z</time>
      </trkpt>
      <trkpt lat="43.71859" lon="3.47289">
        <ele>338</ele>
        <time>2023-04-30T09:49:21Z</time>
      </trkpt>
      <trkpt lat="43.71875" lon="3.47263">
        <ele>340</ele>
        <time>2023-04-30T09:49:26Z</time>
      </trkpt>
      <trkpt lat="43.71926" lon="3.47192">
        <ele>348</ele>
        <time>2023-04-30T09:49:39Z</time>
      </trkpt>
      <trkpt lat="43.71935" lon="3.47169">
        <ele>349</ele>
        <time>2023-04-30T09:49:42Z</time>
      </trkpt>
      <trkpt lat="43.71937" lon="3.47146">
        <ele>345</ele>
        <time>2023-04-30T09:49:45Z</time>
      </trkpt>
      <trkpt lat="43.71951" lon="3.47117">
        <ele>345</ele>
        <time>2023-04-30T09:49:49Z</time>
      </trkpt>
      <trkpt lat="43.71986" lon="3.47078">
        <ele>352</ele>
        <time>2023-04-30T09:49:57Z</time>
      </trkpt>
      <trkpt lat="43.7201" lon="3.47031">
        <ele>352</ele>
        <time>2023-04-30T09:50:05Z</time>
      </trkpt>
      <trkpt lat="43.72024" lon="3.47015">
        <ele>353</ele>
        <time>2023-04-30T09:50:08Z</time>
      </trkpt>
      <trkpt lat="43.72067" lon="3.47005">
        <ele>363</ele>
        <time>2023-04-30T09:50:16Z</time>
      </trkpt>
      <trkpt lat="43.7208" lon="3.46997">
        <ele>365</ele>
        <time>2023-04-30T09:50:18Z</time>
      </trkpt>
      <trkpt lat="43.72089" lon="3.4698">
        <ele>363</ele>
        <time>2023-04-30T09:50:21Z</time>
      </trkpt>
      <trkpt lat="43.72102" lon="3.46942">
        <ele>354</ele>
        <time>2023-04-30T09:50:26Z</time>
      </trkpt>
      <trkpt lat="43.72113" lon="3.46925">
        <ele>351</ele>
        <time>2023-04-30T09:50:29Z</time>
      </trkpt>
      <trkpt lat="43.72125" lon="3.46919">
        <ele>351</ele>
        <time>2023-04-30T09:50:32Z</time>
      </trkpt>
      <trkpt lat="43.7214" lon="3.46924">
        <ele>356</ele>
        <time>2023-04-30T09:50:34Z</time>
      </trkpt>
      <trkpt lat="43.72166" lon="3.46944">
        <ele>367</ele>
        <time>2023-04-30T09:50:40Z</time>
      </trkpt>
      <trkpt lat="43.7218" lon="3.46951">
        <ele>372</ele>
        <time>2023-04-30T09:50:42Z</time>
      </trkpt>
      <trkpt lat="43.72195" lon="3.46952">
        <ele>375</ele>
        <time>2023-04-30T09:50:45Z</time>
      </trkpt>
      <trkpt lat="43.72201" lon="3.4695">
        <ele>376</ele>
        <time>2023-04-30T09:50:46Z</time>
      </trkpt>
      <trkpt lat="43.72207" lon="3.46944">
        <ele>375</ele>
        <time>2023-04-30T09:50:47Z</time>
      </trkpt>
      <trkpt lat="43.72219" lon="3.46927">
        <ele>372</ele>
        <time>2023-04-30T09:50:51Z</time>
      </trkpt>
      <trkpt lat="43.72229" lon="3.46922">
        <ele>372</ele>
        <time>2023-04-30T09:50:52Z</time>
      </trkpt>
      <trkpt lat="43.72264" lon="3.46936">
        <ele>383</ele>
        <time>2023-04-30T09:50:59Z</time>
      </trkpt>
      <trkpt lat="43.72286" lon="3.4693">
        <ele>385</ele>
        <time>2023-04-30T09:51:03Z</time>
      </trkpt>
      <trkpt lat="43.7231" lon="3.46911">
        <ele>384</ele>
        <time>2023-04-30T09:51:08Z</time>
      </trkpt>
      <trkpt lat="43.72328" lon="3.46902">
        <ele>385</ele>
        <time>2023-04-30T09:51:11Z</time>
      </trkpt>
      <trkpt lat="43.72363" lon="3.46894">
        <ele>391</ele>
        <time>2023-04-30T09:51:18Z</time>
      </trkpt>
      <trkpt lat="43.72378" lon="3.46887">
        <ele>394</ele>
        <time>2023-04-30T09:51:20Z</time>
      </trkpt>
      <trkpt lat="43.72391" lon="3.46872">
        <ele>394</ele>
        <time>2023-04-30T09:51:23Z</time>
      </trkpt>
      <trkpt lat="43.72395" lon="3.46862">
        <ele>393</ele>
        <time>2023-04-30T09:51:25Z</time>
      </trkpt>
      <trkpt lat="43.72399" lon="3.46825">
        <ele>389</ele>
        <time>2023-04-30T09:51:30Z</time>
      </trkpt>
      <trkpt lat="43.72441" lon="3.46739">
        <ele>389</ele>
        <time>2023-04-30T09:51:43Z</time>
      </trkpt>
      <trkpt lat="43.72483" lon="3.46703">
        <ele>392</ele>
        <time>2023-04-30T09:51:52Z</time>
      </trkpt>
      <trkpt lat="43.72505" lon="3.46688">
        <ele>393</ele>
        <time>2023-04-30T09:51:56Z</time>
      </trkpt>
      <trkpt lat="43.7253" lon="3.46681">
        <ele>394</ele>
        <time>2023-04-30T09:52:01Z</time>
      </trkpt>
      <trkpt lat="43.7258" lon="3.46681">
        <ele>400</ele>
        <time>2023-04-30T09:52:10Z</time>
      </trkpt>
      <trkpt lat="43.72622" lon="3.46668">
        <ele>399</ele>
        <time>2023-04-30T09:52:17Z</time>
      </trkpt>
      <trkpt lat="43.72648" lon="3.46663">
        <ele>400</ele>
        <time>2023-04-30T09:52:22Z</time>
      </trkpt>
      <trkpt lat="43.72688" lon="3.46673">
        <ele>402</ele>
        <time>2023-04-30T09:52:29Z</time>
      </trkpt>
      <trkpt lat="43.728" lon="3.46759">
        <ele>401</ele>
        <time>2023-04-30T09:52:52Z</time>
      </trkpt>
      <trkpt lat="43.72811" lon="3.46762">
        <ele>402</ele>
        <time>2023-04-30T09:52:54Z</time>
      </trkpt>
      <trkpt lat="43.72898" lon="3.4677">
        <ele>413</ele>
        <time>2023-04-30T09:53:09Z</time>
      </trkpt>
      <trkpt lat="43.72927" lon="3.46771">
        <ele>418</ele>
        <time>2023-04-30T09:53:15Z</time>
      </trkpt>
      <trkpt lat="43.72939" lon="3.4677">
        <ele>420</ele>
        <time>2023-04-30T09:53:17Z</time>
      </trkpt>
      <trkpt lat="43.72947" lon="3.46766">
        <ele>420</ele>
        <time>2023-04-30T09:53:18Z</time>
      </trkpt>
      <trkpt lat="43.72952" lon="3.46757">
        <ele>419</ele>
        <time>2023-04-30T09:53:20Z</time>
      </trkpt>
      <trkpt lat="43.72954" lon="3.46745">
        <ele>418</ele>
        <time>2023-04-30T09:53:21Z</time>
      </trkpt>
      <trkpt lat="43.72953" lon="3.46684">
        <ele>416</ele>
        <time>2023-04-30T09:53:29Z</time>
      </trkpt>
      <trkpt lat="43.72959" lon="3.46657">
        <ele>416</ele>
        <time>2023-04-30T09:53:33Z</time>
      </trkpt>
      <trkpt lat="43.72967" lon="3.46641">
        <ele>416</ele>
        <time>2023-04-30T09:53:35Z</time>
      </trkpt>
      <trkpt lat="43.7298" lon="3.46632">
        <ele>418</ele>
        <time>2023-04-30T09:53:38Z</time>
      </trkpt>
      <trkpt lat="43.73015" lon="3.46626">
        <ele>428</ele>
        <time>2023-04-30T09:53:44Z</time>
      </trkpt>
      <trkpt lat="43.73024" lon="3.46622">
        <ele>430</ele>
        <time>2023-04-30T09:53:46Z</time>
      </trkpt>
      <trkpt lat="43.73047" lon="3.46596">
        <ele>431</ele>
        <time>2023-04-30T09:53:51Z</time>
      </trkpt>
      <trkpt lat="43.73064" lon="3.46563">
        <ele>431</ele>
        <time>2023-04-30T09:53:56Z</time>
      </trkpt>
      <trkpt lat="43.73092" lon="3.46465">
        <ele>435</ele>
        <time>2023-04-30T09:54:10Z</time>
      </trkpt>
      <trkpt lat="43.73067" lon="3.46309">
        <ele>447</ele>
        <time>2023-04-30T09:54:30Z</time>
      </trkpt>
      <trkpt lat="43.73027" lon="3.46226">
        <ele>453</ele>
        <time>2023-04-30T09:54:43Z</time>
      </trkpt>
      <trkpt lat="43.7299" lon="3.46174">
        <ele>453</ele>
        <time>2023-04-30T09:54:53Z</time>
      </trkpt>
      <trkpt lat="43.72981" lon="3.46156">
        <ele>453</ele>
        <time>2023-04-30T09:54:55Z</time>
      </trkpt>
      <trkpt lat="43.72961" lon="3.46049">
        <ele>453</ele>
        <time>2023-04-30T09:55:10Z</time>
      </trkpt>
      <trkpt lat="43.72962" lon="3.46025">
        <ele>452</ele>
        <time>2023-04-30T09:55:13Z</time>
      </trkpt>
      <trkpt lat="43.72974" lon="3.45997">
        <ele>455</ele>
        <time>2023-04-30T09:55:17Z</time>
      </trkpt>
      <trkpt lat="43.72984" lon="3.45987">
        <ele>457</ele>
        <time>2023-04-30T09:55:19Z</time>
      </trkpt>
      <trkpt lat="43.72999" lon="3.45982">
        <ele>460</ele>
        <time>2023-04-30T09:55:22Z</time>
      </trkpt>
      <trkpt lat="43.73017" lon="3.4598">
        <ele>461</ele>
        <time>2023-04-30T09:55:25Z</time>
      </trkpt>
      <trkpt lat="43.73047" lon="3.45985">
        <ele>464</ele>
        <time>2023-04-30T09:55:30Z</time>
      </trkpt>
      <trkpt lat="43.73099" lon="3.46001">
        <ele>469</ele>
        <time>2023-04-30T09:55:40Z</time>
      </trkpt>
      <trkpt lat="43.7314" lon="3.46022">
        <ele>473</ele>
        <time>2023-04-30T09:55:48Z</time>
      </trkpt>
      <trkpt lat="43.73215" lon="3.46052">
        <ele>479</ele>
        <time>2023-04-30T09:56:02Z</time>
      </trkpt>
      <trkpt lat="43.73247" lon="3.46071">
        <ele>483</ele>
        <time>2023-04-30T09:56:08Z</time>
      </trkpt>
      <trkpt lat="43.7328" lon="3.46078">
        <ele>489</ele>
        <time>2023-04-30T09:56:14Z</time>
      </trkpt>
      <trkpt lat="43.73309" lon="3.46071">
        <ele>490</ele>
        <time>2023-04-30T09:56:19Z</time>
      </trkpt>
      <trkpt lat="43.7334" lon="3.4607">
        <ele>493</ele>
        <time>2023-04-30T09:56:24Z</time>
      </trkpt>
      <trkpt lat="43.73472" lon="3.46031">
        <ele>500</ele>
        <time>2023-04-30T09:56:48Z</time>
      </trkpt>
      <trkpt lat="43.73522" lon="3.4601">
        <ele>506</ele>
        <time>2023-04-30T09:56:58Z</time>
      </trkpt>
      <trkpt lat="43.73542" lon="3.45992">
        <ele>509</ele>
        <time>2023-04-30T09:57:02Z</time>
      </trkpt>
      <trkpt lat="43.7355" lon="3.45956">
        <ele>510</ele>
        <time>2023-04-30T09:57:07Z</time>
      </trkpt>
      <trkpt lat="43.73552" lon="3.45925">
        <ele>510</ele>
        <time>2023-04-30T09:57:11Z</time>
      </trkpt>
      <trkpt lat="43.73547" lon="3.45854">
        <ele>514</ele>
        <time>2023-04-30T09:57:20Z</time>
      </trkpt>
      <trkpt lat="43.73541" lon="3.45829">
        <ele>515</ele>
        <time>2023-04-30T09:57:23Z</time>
      </trkpt>
      <trkpt lat="43.73527" lon="3.45802">
        <ele>514</ele>
        <time>2023-04-30T09:57:28Z</time>
      </trkpt>
      <trkpt lat="43.73512" lon="3.45804">
        <ele>509</ele>
        <time>2023-04-30T09:57:30Z</time>
      </trkpt>
      <trkpt lat="43.73504" lon="3.45796">
        <ele>508</ele>
        <time>2023-04-30T09:57:32Z</time>
      </trkpt>
      <trkpt lat="43.73485" lon="3.45746">
        <ele>508</ele>
        <time>2023-04-30T09:57:39Z</time>
      </trkpt>
      <trkpt lat="43.73474" lon="3.45707">
        <ele>506</ele>
        <time>2023-04-30T09:57:45Z</time>
      </trkpt>
      <trkpt lat="43.73466" lon="3.45664">
        <ele>505</ele>
        <time>2023-04-30T09:57:50Z</time>
      </trkpt>
      <trkpt lat="43.73464" lon="3.45552">
        <ele>505</ele>
        <time>2023-04-30T09:58:05Z</time>
      </trkpt>
      <trkpt lat="43.7337" lon="3.45458">
        <ele>481</ele>
        <time>2023-04-30T09:58:26Z</time>
      </trkpt>
      <trkpt lat="43.73349" lon="3.45396">
        <ele>480</ele>
        <time>2023-04-30T09:58:34Z</time>
      </trkpt>
      <trkpt lat="43.73344" lon="3.45305">
        <ele>478</ele>
        <time>2023-04-30T09:58:46Z</time>
      </trkpt>
      <trkpt lat="43.73352" lon="3.45177">
        <ele>475</ele>
        <time>2023-04-30T09:59:03Z</time>
      </trkpt>
      <trkpt lat="43.73326" lon="3.45026">
        <ele>463</ele>
        <time>2023-04-30T09:59:23Z</time>
      </trkpt>
      <trkpt lat="43.73356" lon="3.44941">
        <ele>455</ele>
        <time>2023-04-30T09:59:35Z</time>
      </trkpt>
      <trkpt lat="43.73349" lon="3.44934">
        <ele>453</ele>
        <time>2023-04-30T09:59:36Z</time>
      </trkpt>
      <trkpt lat="43.73322" lon="3.44933">
        <ele>450</ele>
        <time>2023-04-30T09:59:41Z</time>
      </trkpt>
      <trkpt lat="43.73224" lon="3.44921">
        <ele>445</ele>
        <time>2023-04-30T09:59:59Z</time>
      </trkpt>
      <trkpt lat="43.73179" lon="3.449">
        <ele>441</ele>
        <time>2023-04-30T10:00:07Z</time>
      </trkpt>
      <trkpt lat="43.73162" lon="3.44895">
        <ele>440</ele>
        <time>2023-04-30T10:00:10Z</time>
      </trkpt>
      <trkpt lat="43.73156" lon="3.44888">
        <ele>441</ele>
        <time>2023-04-30T10:00:11Z</time>
      </trkpt>
      <trkpt lat="43.73152" lon="3.44873">
        <ele>441</ele>
        <time>2023-04-30T10:00:14Z</time>
      </trkpt>
      <trkpt lat="43.73123" lon="3.44835">
        <ele>448</ele>
        <time>2023-04-30T10:00:21Z</time>
      </trkpt>
      <trkpt lat="43.73104" lon="3.44802">
        <ele>449</ele>
        <time>2023-04-30T10:00:26Z</time>
      </trkpt>
      <trkpt lat="43.73099" lon="3.44777">
        <ele>449</ele>
        <time>2023-04-30T10:00:29Z</time>
      </trkpt>
      <trkpt lat="43.73096" lon="3.4474">
        <ele>446</ele>
        <time>2023-04-30T10:00:34Z</time>
      </trkpt>
      <trkpt lat="43.73081" lon="3.44664">
        <ele>441</ele>
        <time>2023-04-30T10:00:44Z</time>
      </trkpt>
      <trkpt lat="43.73048" lon="3.44596">
        <ele>437</ele>
        <time>2023-04-30T10:00:55Z</time>
      </trkpt>
      <trkpt lat="43.73022" lon="3.44563">
        <ele>433</ele>
        <time>2023-04-30T10:01:01Z</time>
      </trkpt>
      <trkpt lat="43.73013" lon="3.44559">
        <ele>432</ele>
        <time>2023-04-30T10:01:03Z</time>
      </trkpt>
      <trkpt lat="43.73002" lon="3.44559">
        <ele>433</ele>
        <time>2023-04-30T10:01:05Z</time>
      </trkpt>
      <trkpt lat="43.72977" lon="3.44568">
        <ele>432</ele>
        <time>2023-04-30T10:01:09Z</time>
      </trkpt>
      <trkpt lat="43.72929" lon="3.44594">
        <ele>432</ele>
        <time>2023-04-30T10:01:19Z</time>
      </trkpt>
      <trkpt lat="43.72855" lon="3.44624">
        <ele>426</ele>
        <time>2023-04-30T10:01:32Z</time>
      </trkpt>
      <trkpt lat="43.72838" lon="3.44639">
        <ele>426</ele>
        <time>2023-04-30T10:01:36Z</time>
      </trkpt>
      <trkpt lat="43.72813" lon="3.44651">
        <ele>425</ele>
        <time>2023-04-30T10:01:41Z</time>
      </trkpt>
      <trkpt lat="43.72741" lon="3.44667">
        <ele>420</ele>
        <time>2023-04-30T10:01:54Z</time>
      </trkpt>
      <trkpt lat="43.72721" lon="3.44661">
        <ele>419</ele>
        <time>2023-04-30T10:01:57Z</time>
      </trkpt>
      <trkpt lat="43.72691" lon="3.44642">
        <ele>416</ele>
        <time>2023-04-30T10:02:03Z</time>
      </trkpt>
      <trkpt lat="43.72681" lon="3.44631">
        <ele>414</ele>
        <time>2023-04-30T10:02:05Z</time>
      </trkpt>
      <trkpt lat="43.72673" lon="3.44617">
        <ele>410</ele>
        <time>2023-04-30T10:02:08Z</time>
      </trkpt>
      <trkpt lat="43.72605" lon="3.44553">
        <ele>409</ele>
        <time>2023-04-30T10:02:22Z</time>
      </trkpt>
      <trkpt lat="43.726" lon="3.4454">
        <ele>408</ele>
        <time>2023-04-30T10:02:24Z</time>
      </trkpt>
      <trkpt lat="43.7261" lon="3.44516">
        <ele>402</ele>
        <time>2023-04-30T10:02:28Z</time>
      </trkpt>
      <trkpt lat="43.7261" lon="3.44495">
        <ele>398</ele>
        <time>2023-04-30T10:02:30Z</time>
      </trkpt>
      <trkpt lat="43.72604" lon="3.44477">
        <ele>396</ele>
        <time>2023-04-30T10:02:33Z</time>
      </trkpt>
      <trkpt lat="43.72552" lon="3.44423">
        <ele>389</ele>
        <time>2023-04-30T10:02:45Z</time>
      </trkpt>
      <trkpt lat="43.7252" lon="3.44404">
        <ele>386</ele>
        <time>2023-04-30T10:02:51Z</time>
      </trkpt>
      <trkpt lat="43.72504" lon="3.44407">
        <ele>388</ele>
        <time>2023-04-30T10:02:54Z</time>
      </trkpt>
      <trkpt lat="43.725" lon="3.44403">
        <ele>387</ele>
        <time>2023-04-30T10:02:54Z</time>
      </trkpt>
      <trkpt lat="43.72504" lon="3.44393">
        <ele>384</ele>
        <time>2023-04-30T10:02:56Z</time>
      </trkpt>
      <trkpt lat="43.72529" lon="3.44388">
        <ele>381</ele>
        <time>2023-04-30T10:03:00Z</time>
      </trkpt>
      <trkpt lat="43.72531" lon="3.44381">
        <ele>379</ele>
        <time>2023-04-30T10:03:01Z</time>
      </trkpt>
      <trkpt lat="43.72527" lon="3.44377">
        <ele>379</ele>
        <time>2023-04-30T10:03:02Z</time>
      </trkpt>
      <trkpt lat="43.72488" lon="3.4439">
        <ele>386</ele>
        <time>2023-04-30T10:03:09Z</time>
      </trkpt>
      <trkpt lat="43.72472" lon="3.44389">
        <ele>387</ele>
        <time>2023-04-30T10:03:12Z</time>
      </trkpt>
      <trkpt lat="43.72424" lon="3.44322">
        <ele>384</ele>
        <time>2023-04-30T10:03:24Z</time>
      </trkpt>
      <trkpt lat="43.72371" lon="3.44269">
        <ele>386</ele>
        <time>2023-04-30T10:03:36Z</time>
      </trkpt>
      <trkpt lat="43.72352" lon="3.44253">
        <ele>387</ele>
        <time>2023-04-30T10:03:40Z</time>
      </trkpt>
      <trkpt lat="43.72333" lon="3.44252">
        <ele>388</ele>
        <time>2023-04-30T10:03:43Z</time>
      </trkpt>
      <trkpt lat="43.72316" lon="3.44273">
        <ele>386</ele>
        <time>2023-04-30T10:03:47Z</time>
      </trkpt>
      <trkpt lat="43.7229" lon="3.44316">
        <ele>387</ele>
        <time>2023-04-30T10:03:55Z</time>
      </trkpt>
      <trkpt lat="43.72248" lon="3.44352">
        <ele>390</ele>
        <time>2023-04-30T10:04:03Z</time>
      </trkpt>
      <trkpt lat="43.72229" lon="3.4436">
        <ele>388</ele>
        <time>2023-04-30T10:04:07Z</time>
      </trkpt>
      <trkpt lat="43.722" lon="3.44364">
        <ele>381</ele>
        <time>2023-04-30T10:04:12Z</time>
      </trkpt>
      <trkpt lat="43.72178" lon="3.44381">
        <ele>380</ele>
        <time>2023-04-30T10:04:17Z</time>
      </trkpt>
      <trkpt lat="43.72163" lon="3.44414">
        <ele>385</ele>
        <time>2023-04-30T10:04:22Z</time>
      </trkpt>
      <trkpt lat="43.72156" lon="3.44457">
        <ele>394</ele>
        <time>2023-04-30T10:04:27Z</time>
      </trkpt>
      <trkpt lat="43.72128" lon="3.44511">
        <ele>399</ele>
        <time>2023-04-30T10:04:36Z</time>
      </trkpt>
      <trkpt lat="43.72106" lon="3.44535">
        <ele>398</ele>
        <time>2023-04-30T10:04:41Z</time>
      </trkpt>
      <trkpt lat="43.72068" lon="3.44559">
        <ele>395</ele>
        <time>2023-04-30T10:04:48Z</time>
      </trkpt>
      <trkpt lat="43.72024" lon="3.44565">
        <ele>391</ele>
        <time>2023-04-30T10:04:56Z</time>
      </trkpt>
      <trkpt lat="43.71976" lon="3.44549">
        <ele>382</ele>
        <time>2023-04-30T10:05:05Z</time>
      </trkpt>
      <trkpt lat="43.71943" lon="3.4453">
        <ele>376</ele>
        <time>2023-04-30T10:05:11Z</time>
      </trkpt>
      <trkpt lat="43.71916" lon="3.44528">
        <ele>374</ele>
        <time>2023-04-30T10:05:16Z</time>
      </trkpt>
      <trkpt lat="43.71896" lon="3.44533">
        <ele>371</ele>
        <time>2023-04-30T10:05:20Z</time>
      </trkpt>
      <trkpt lat="43.71868" lon="3.44549">
        <ele>369</ele>
        <time>2023-04-30T10:05:25Z</time>
      </trkpt>
      <trkpt lat="43.71852" lon="3.44561">
        <ele>369</ele>
        <time>2023-04-30T10:05:28Z</time>
      </trkpt>
      <trkpt lat="43.71842" lon="3.44574">
        <ele>370</ele>
        <time>2023-04-30T10:05:31Z</time>
      </trkpt>
      <trkpt lat="43.71834" lon="3.44596">
        <ele>374</ele>
        <time>2023-04-30T10:05:34Z</time>
      </trkpt>
      <trkpt lat="43.71831" lon="3.446">
        <ele>373</ele>
        <time>2023-04-30T10:05:35Z</time>
      </trkpt>
      <trkpt lat="43.71826" lon="3.44599">
        <ele>372</ele>
        <time>2023-04-30T10:05:36Z</time>
      </trkpt>
      <trkpt lat="43.71823" lon="3.44591">
        <ele>369</ele>
        <time>2023-04-30T10:05:37Z</time>
      </trkpt>
      <trkpt lat="43.71827" lon="3.44578">
        <ele>368</ele>
        <time>2023-04-30T10:05:39Z</time>
      </trkpt>
      <trkpt lat="43.71861" lon="3.44514">
        <ele>358</ele>
        <time>2023-04-30T10:05:49Z</time>
      </trkpt>
      <trkpt lat="43.71881" lon="3.44499">
        <ele>358</ele>
        <time>2023-04-30T10:05:53Z</time>
      </trkpt>
      <trkpt lat="43.71905" lon="3.44494">
        <ele>362</ele>
        <time>2023-04-30T10:05:57Z</time>
      </trkpt>
      <trkpt lat="43.71927" lon="3.44471">
        <ele>357</ele>
        <time>2023-04-30T10:06:02Z</time>
      </trkpt>
      <trkpt lat="43.71941" lon="3.4446">
        <ele>354</ele>
        <time>2023-04-30T10:06:05Z</time>
      </trkpt>
      <trkpt lat="43.71972" lon="3.44466">
        <ele>358</ele>
        <time>2023-04-30T10:06:10Z</time>
      </trkpt>
      <trkpt lat="43.72004" lon="3.44484">
        <ele>365</ele>
        <time>2023-04-30T10:06:17Z</time>
      </trkpt>
      <trkpt lat="43.72059" lon="3.44455">
        <ele>364</ele>
        <time>2023-04-30T10:06:27Z</time>
      </trkpt>
      <trkpt lat="43.72113" lon="3.44378">
        <ele>357</ele>
        <time>2023-04-30T10:06:41Z</time>
      </trkpt>
      <trkpt lat="43.72144" lon="3.44297">
        <ele>349</ele>
        <time>2023-04-30T10:06:53Z</time>
      </trkpt>
      <trkpt lat="43.72169" lon="3.44242">
        <ele>343</ele>
        <time>2023-04-30T10:07:01Z</time>
      </trkpt>
      <trkpt lat="43.72197" lon="3.44212">
        <ele>346</ele>
        <time>2023-04-30T10:07:07Z</time>
      </trkpt>
      <trkpt lat="43.72208" lon="3.44193">
        <ele>346</ele>
        <time>2023-04-30T10:07:10Z</time>
      </trkpt>
      <trkpt lat="43.72216" lon="3.44162">
        <ele>342</ele>
        <time>2023-04-30T10:07:15Z</time>
      </trkpt>
      <trkpt lat="43.72206" lon="3.44157">
        <ele>339</ele>
        <time>2023-04-30T10:07:17Z</time>
      </trkpt>
      <trkpt lat="43.72178" lon="3.4418">
        <ele>336</ele>
        <time>2023-04-30T10:07:22Z</time>
      </trkpt>
      <trkpt lat="43.72152" lon="3.4419">
        <ele>331</ele>
        <time>2023-04-30T10:07:27Z</time>
      </trkpt>
      <trkpt lat="43.72139" lon="3.44211">
        <ele>331</ele>
        <time>2023-04-30T10:07:31Z</time>
      </trkpt>
      <trkpt lat="43.72107" lon="3.44251">
        <ele>329</ele>
        <time>2023-04-30T10:07:38Z</time>
      </trkpt>
      <trkpt lat="43.72077" lon="3.44282">
        <ele>327</ele>
        <time>2023-04-30T10:07:45Z</time>
      </trkpt>
      <trkpt lat="43.72051" lon="3.44299">
        <ele>325</ele>
        <time>2023-04-30T10:07:50Z</time>
      </trkpt>
      <trkpt lat="43.72025" lon="3.44308">
        <ele>323</ele>
        <time>2023-04-30T10:07:55Z</time>
      </trkpt>
      <trkpt lat="43.72004" lon="3.4433">
        <ele>323</ele>
        <time>2023-04-30T10:08:00Z</time>
      </trkpt>
      <trkpt lat="43.71977" lon="3.44328">
        <ele>321</ele>
        <time>2023-04-30T10:08:04Z</time>
      </trkpt>
      <trkpt lat="43.71944" lon="3.44315">
        <ele>316</ele>
        <time>2023-04-30T10:08:11Z</time>
      </trkpt>
      <trkpt lat="43.71906" lon="3.4432">
        <ele>313</ele>
        <time>2023-04-30T10:08:17Z</time>
      </trkpt>
      <trkpt lat="43.71884" lon="3.44319">
        <ele>309</ele>
        <time>2023-04-30T10:08:21Z</time>
      </trkpt>
      <trkpt lat="43.71864" lon="3.4433">
        <ele>308</ele>
        <time>2023-04-30T10:08:25Z</time>
      </trkpt>
      <trkpt lat="43.71842" lon="3.44351">
        <ele>309</ele>
        <time>2023-04-30T10:08:30Z</time>
      </trkpt>
      <trkpt lat="43.71832" lon="3.44352">
        <ele>307</ele>
        <time>2023-04-30T10:08:32Z</time>
      </trkpt>
      <trkpt lat="43.71817" lon="3.44349">
        <ele>304</ele>
        <time>2023-04-30T10:08:34Z</time>
      </trkpt>
      <trkpt lat="43.71785" lon="3.44365">
        <ele>303</ele>
        <time>2023-04-30T10:08:40Z</time>
      </trkpt>
      <trkpt lat="43.7177" lon="3.44368">
        <ele>302</ele>
        <time>2023-04-30T10:08:43Z</time>
      </trkpt>
      <trkpt lat="43.71755" lon="3.44381">
        <ele>302</ele>
        <time>2023-04-30T10:08:46Z</time>
      </trkpt>
      <trkpt lat="43.71738" lon="3.44383">
        <ele>300</ele>
        <time>2023-04-30T10:08:49Z</time>
      </trkpt>
      <trkpt lat="43.71711" lon="3.44413">
        <ele>299</ele>
        <time>2023-04-30T10:08:55Z</time>
      </trkpt>
      <trkpt lat="43.71696" lon="3.44425">
        <ele>298</ele>
        <time>2023-04-30T10:08:59Z</time>
      </trkpt>
      <trkpt lat="43.71686" lon="3.44425">
        <ele>296</ele>
        <time>2023-04-30T10:09:00Z</time>
      </trkpt>
      <trkpt lat="43.71687" lon="3.4441">
        <ele>294</ele>
        <time>2023-04-30T10:09:02Z</time>
      </trkpt>
      <trkpt lat="43.71702" lon="3.44395">
        <ele>294</ele>
        <time>2023-04-30T10:09:06Z</time>
      </trkpt>
      <trkpt lat="43.71716" lon="3.44341">
        <ele>287</ele>
        <time>2023-04-30T10:09:13Z</time>
      </trkpt>
      <trkpt lat="43.71729" lon="3.44321">
        <ele>286</ele>
        <time>2023-04-30T10:09:16Z</time>
      </trkpt>
      <trkpt lat="43.71742" lon="3.44284">
        <ele>282</ele>
        <time>2023-04-30T10:09:22Z</time>
      </trkpt>
      <trkpt lat="43.71756" lon="3.44272">
        <ele>282</ele>
        <time>2023-04-30T10:09:25Z</time>
      </trkpt>
      <trkpt lat="43.71797" lon="3.44272">
        <ele>287</ele>
        <time>2023-04-30T10:09:32Z</time>
      </trkpt>
      <trkpt lat="43.71818" lon="3.44267">
        <ele>288</ele>
        <time>2023-04-30T10:09:36Z</time>
      </trkpt>
      <trkpt lat="43.71839" lon="3.44231">
        <ele>284</ele>
        <time>2023-04-30T10:09:42Z</time>
      </trkpt>
      <trkpt lat="43.71855" lon="3.44195">
        <ele>278</ele>
        <time>2023-04-30T10:09:47Z</time>
      </trkpt>
      <trkpt lat="43.71893" lon="3.44158">
        <ele>275</ele>
        <time>2023-04-30T10:09:55Z</time>
      </trkpt>
      <trkpt lat="43.71903" lon="3.44157">
        <ele>276</ele>
        <time>2023-04-30T10:09:57Z</time>
      </trkpt>
      <trkpt lat="43.71909" lon="3.44149">
        <ele>275</ele>
        <time>2023-04-30T10:09:59Z</time>
      </trkpt>
      <trkpt lat="43.71906" lon="3.44142">
        <ele>274</ele>
        <time>2023-04-30T10:10:00Z</time>
      </trkpt>
      <trkpt lat="43.71879" lon="3.44147">
        <ele>271</ele>
        <time>2023-04-30T10:10:04Z</time>
      </trkpt>
      <trkpt lat="43.71848" lon="3.44158">
        <ele>269</ele>
        <time>2023-04-30T10:10:10Z</time>
      </trkpt>
      <trkpt lat="43.71833" lon="3.44171">
        <ele>270</ele>
        <time>2023-04-30T10:10:13Z</time>
      </trkpt>
      <trkpt lat="43.71809" lon="3.44211">
        <ele>277</ele>
        <time>2023-04-30T10:10:20Z</time>
      </trkpt>
      <trkpt lat="43.71801" lon="3.44207">
        <ele>275</ele>
        <time>2023-04-30T10:10:22Z</time>
      </trkpt>
      <trkpt lat="43.71794" lon="3.44195">
        <ele>273</ele>
        <time>2023-04-30T10:10:23Z</time>
      </trkpt>
      <trkpt lat="43.71792" lon="3.44181">
        <ele>270</ele>
        <time>2023-04-30T10:10:25Z</time>
      </trkpt>
      <trkpt lat="43.71787" lon="3.44171">
        <ele>268</ele>
        <time>2023-04-30T10:10:27Z</time>
      </trkpt>
      <trkpt lat="43.71772" lon="3.44155">
        <ele>264</ele>
        <time>2023-04-30T10:10:30Z</time>
      </trkpt>
      <trkpt lat="43.7176" lon="3.44148">
        <ele>262</ele>
        <time>2023-04-30T10:10:33Z</time>
      </trkpt>
      <trkpt lat="43.71704" lon="3.44143">
        <ele>256</ele>
        <time>2023-04-30T10:10:43Z</time>
      </trkpt>
      <trkpt lat="43.7165" lon="3.4415">
        <ele>252</ele>
        <time>2023-04-30T10:10:52Z</time>
      </trkpt>
      <trkpt lat="43.71644" lon="3.44145">
        <ele>251</ele>
        <time>2023-04-30T10:10:53Z</time>
      </trkpt>
      <trkpt lat="43.71645" lon="3.44139">
        <ele>250</ele>
        <time>2023-04-30T10:10:54Z</time>
      </trkpt>
      <trkpt lat="43.71675" lon="3.44128">
        <ele>250</ele>
        <time>2023-04-30T10:11:00Z</time>
      </trkpt>
      <trkpt lat="43.71697" lon="3.44108">
        <ele>248</ele>
        <time>2023-04-30T10:11:04Z</time>
      </trkpt>
      <trkpt lat="43.71724" lon="3.44101">
        <ele>248</ele>
        <time>2023-04-30T10:11:09Z</time>
      </trkpt>
      <trkpt lat="43.71751" lon="3.44084">
        <ele>246</ele>
        <time>2023-04-30T10:11:15Z</time>
      </trkpt>
      <trkpt lat="43.71784" lon="3.44075">
        <ele>247</ele>
        <time>2023-04-30T10:11:21Z</time>
      </trkpt>
      <trkpt lat="43.71789" lon="3.44067">
        <ele>247</ele>
        <time>2023-04-30T10:11:22Z</time>
      </trkpt>
      <trkpt lat="43.71786" lon="3.44059">
        <ele>245</ele>
        <time>2023-04-30T10:11:23Z</time>
      </trkpt>
      <trkpt lat="43.7178" lon="3.44055">
        <ele>244</ele>
        <time>2023-04-30T10:11:24Z</time>
      </trkpt>
      <trkpt lat="43.71769" lon="3.44054">
        <ele>243</ele>
        <time>2023-04-30T10:11:26Z</time>
      </trkpt>
      <trkpt lat="43.71757" lon="3.44049">
        <ele>241</ele>
        <time>2023-04-30T10:11:29Z</time>
      </trkpt>
      <trkpt lat="43.71731" lon="3.4402">
        <ele>235</ele>
        <time>2023-04-30T10:11:34Z</time>
      </trkpt>
      <trkpt lat="43.71714" lon="3.43994">
        <ele>230</ele>
        <time>2023-04-30T10:11:39Z</time>
      </trkpt>
      <trkpt lat="43.71682" lon="3.43976">
        <ele>227</ele>
        <time>2023-04-30T10:11:45Z</time>
      </trkpt>
      <trkpt lat="43.71652" lon="3.43944">
        <ele>223</ele>
        <time>2023-04-30T10:11:52Z</time>
      </trkpt>
      <trkpt lat="43.7161" lon="3.43917">
        <ele>218</ele>
        <time>2023-04-30T10:12:00Z</time>
      </trkpt>
      <trkpt lat="43.71602" lon="3.43915">
        <ele>217</ele>
        <time>2023-04-30T10:12:02Z</time>
      </trkpt>
      <trkpt lat="43.71553" lon="3.43878">
        <ele>215</ele>
        <time>2023-04-30T10:12:11Z</time>
      </trkpt>
      <trkpt lat="43.71543" lon="3.43877">
        <ele>215</ele>
        <time>2023-04-30T10:12:13Z</time>
      </trkpt>
      <trkpt lat="43.71529" lon="3.43896">
        <ele>216</ele>
        <time>2023-04-30T10:12:17Z</time>
      </trkpt>
      <trkpt lat="43.71473" lon="3.43882">
        <ele>214</ele>
        <time>2023-04-30T10:12:27Z</time>
      </trkpt>
      <trkpt lat="43.7137" lon="3.43823">
        <ele>203</ele>
        <time>2023-04-30T10:12:47Z</time>
      </trkpt>
      <trkpt lat="43.7134" lon="3.43797">
        <ele>200</ele>
        <time>2023-04-30T10:12:53Z</time>
      </trkpt>
      <trkpt lat="43.71307" lon="3.4378">
        <ele>198</ele>
        <time>2023-04-30T10:12:59Z</time>
      </trkpt>
      <trkpt lat="43.71235" lon="3.43799">
        <ele>194</ele>
        <time>2023-04-30T10:13:12Z</time>
      </trkpt>
      <trkpt lat="43.71154" lon="3.43828">
        <ele>189</ele>
        <time>2023-04-30T10:13:27Z</time>
      </trkpt>
      <trkpt lat="43.71139" lon="3.43826">
        <ele>188</ele>
        <time>2023-04-30T10:13:30Z</time>
      </trkpt>
      <trkpt lat="43.71118" lon="3.43802">
        <ele>189</ele>
        <time>2023-04-30T10:13:35Z</time>
      </trkpt>
      <trkpt lat="43.71042" lon="3.43853">
        <ele>187</ele>
        <time>2023-04-30T10:13:50Z</time>
      </trkpt>
      <trkpt lat="43.71014" lon="3.43866">
        <ele>187</ele>
        <time>2023-04-30T10:13:55Z</time>
      </trkpt>
      <trkpt lat="43.71001" lon="3.43866">
        <ele>187</ele>
        <time>2023-04-30T10:13:57Z</time>
      </trkpt>
      <trkpt lat="43.70989" lon="3.43861">
        <ele>187</ele>
        <time>2023-04-30T10:14:00Z</time>
      </trkpt>
      <trkpt lat="43.70971" lon="3.43846">
        <ele>187</ele>
        <time>2023-04-30T10:14:03Z</time>
      </trkpt>
      <trkpt lat="43.70943" lon="3.43835">
        <ele>187</ele>
        <time>2023-04-30T10:14:08Z</time>
      </trkpt>
      <trkpt lat="43.70907" lon="3.43808">
        <ele>186</ele>
        <time>2023-04-30T10:14:16Z</time>
      </trkpt>
      <trkpt lat="43.70894" lon="3.43804">
        <ele>186</ele>
        <time>2023-04-30T10:14:18Z</time>
      </trkpt>
      <trkpt lat="43.70851" lon="3.438">
        <ele>187</ele>
        <time>2023-04-30T10:14:26Z</time>
      </trkpt>
      <trkpt lat="43.70819" lon="3.43804">
        <ele>188</ele>
        <time>2023-04-30T10:14:32Z</time>
      </trkpt>
      <trkpt lat="43.70802" lon="3.43809">
        <ele>187</ele>
        <time>2023-04-30T10:14:35Z</time>
      </trkpt>
      <trkpt lat="43.70785" lon="3.43817">
        <ele>187</ele>
        <time>2023-04-30T10:14:38Z</time>
      </trkpt>
      <trkpt lat="43.70767" lon="3.43833">
        <ele>187</ele>
        <time>2023-04-30T10:14:42Z</time>
      </trkpt>
      <trkpt lat="43.70648" lon="3.43976">
        <ele>188</ele>
        <time>2023-04-30T10:15:10Z</time>
      </trkpt>
      <trkpt lat="43.70619" lon="3.43995">
        <ele>186</ele>
        <time>2023-04-30T10:15:15Z</time>
      </trkpt>
      <trkpt lat="43.70578" lon="3.44014">
        <ele>184</ele>
        <time>2023-04-30T10:15:23Z</time>
      </trkpt>
      <trkpt lat="43.70555" lon="3.44033">
        <ele>183</ele>
        <time>2023-04-30T10:15:28Z</time>
      </trkpt>
      <trkpt lat="43.70539" lon="3.44054">
        <ele>182</ele>
        <time>2023-04-30T10:15:32Z</time>
      </trkpt>
      <trkpt lat="43.70502" lon="3.44141">
        <ele>177</ele>
        <time>2023-04-30T10:15:45Z</time>
      </trkpt>
      <trkpt lat="43.70488" lon="3.44166">
        <ele>177</ele>
        <time>2023-04-30T10:15:49Z</time>
      </trkpt>
      <trkpt lat="43.70475" lon="3.44181">
        <ele>178</ele>
        <time>2023-04-30T10:15:52Z</time>
      </trkpt>
      <trkpt lat="43.70457" lon="3.44193">
        <ele>178</ele>
        <time>2023-04-30T10:15:55Z</time>
      </trkpt>
      <trkpt lat="43.70439" lon="3.442">
        <ele>178</ele>
        <time>2023-04-30T10:15:59Z</time>
      </trkpt>
      <trkpt lat="43.70423" lon="3.44203">
        <ele>178</ele>
        <time>2023-04-30T10:16:02Z</time>
      </trkpt>
      <trkpt lat="43.70252" lon="3.44209">
        <ele>167</ele>
        <time>2023-04-30T10:16:32Z</time>
      </trkpt>
      <trkpt lat="43.70198" lon="3.44205">
        <ele>166</ele>
        <time>2023-04-30T10:16:42Z</time>
      </trkpt>
      <trkpt lat="43.70163" lon="3.44207">
        <ele>164</ele>
        <time>2023-04-30T10:16:48Z</time>
      </trkpt>
      <trkpt lat="43.70141" lon="3.44218">
        <ele>163</ele>
        <time>2023-04-30T10:16:52Z</time>
      </trkpt>
      <trkpt lat="43.70101" lon="3.44252">
        <ele>158</ele>
        <time>2023-04-30T10:17:00Z</time>
      </trkpt>
      <trkpt lat="43.70083" lon="3.44259">
        <ele>156</ele>
        <time>2023-04-30T10:17:04Z</time>
      </trkpt>
      <trkpt lat="43.69846" lon="3.44089">
        <ele>142</ele>
        <time>2023-04-30T10:17:51Z</time>
      </trkpt>
      <trkpt lat="43.69693" lon="3.44109">
        <ele>132</ele>
        <time>2023-04-30T10:18:19Z</time>
      </trkpt>
      <trkpt lat="43.69411" lon="3.44086">
        <ele>126</ele>
        <time>2023-04-30T10:19:09Z</time>
      </trkpt>
      <trkpt lat="43.69306" lon="3.44048">
        <ele>121</ele>
        <time>2023-04-30T10:19:28Z</time>
      </trkpt>
      <trkpt lat="43.69173" lon="3.44115">
        <ele>113</ele>
        <time>2023-04-30T10:19:53Z</time>
      </trkpt>
      <trkpt lat="43.68837" lon="3.43938">
        <ele>103</ele>
        <time>2023-04-30T10:20:57Z</time>
      </trkpt>
      <trkpt lat="43.68255" lon="3.4374">
        <ele>93</ele>
        <time>2023-04-30T10:22:44Z</time>
      </trkpt>
      <trkpt lat="43.67689" lon="3.43792">
        <ele>94</ele>
        <time>2023-04-30T10:24:25Z</time>
      </trkpt>
      <trkpt lat="43.67472" lon="3.43859">
        <ele>97</ele>
        <time>2023-04-30T10:25:04Z</time>
      </trkpt>
      <trkpt lat="43.67348" lon="3.43868">
        <ele>94</ele>
        <time>2023-04-30T10:25:26Z</time>
      </trkpt>
      <trkpt lat="43.67238" lon="3.43818">
        <ele>90</ele>
        <time>2023-04-30T10:25:47Z</time>
      </trkpt>
      <trkpt lat="43.66785" lon="3.4384">
        <ele>87</ele>
        <time>2023-04-30T10:27:08Z</time>
      </trkpt>
      <trkpt lat="43.66729" lon="3.43867">
        <ele>93</ele>
        <time>2023-04-30T10:27:18Z</time>
      </trkpt>
      <trkpt lat="43.66733" lon="3.43871">
        <ele>94</ele>
        <time>2023-04-30T10:27:19Z</time>
      </trkpt>
      <trkpt lat="43.66754" lon="3.4387">
        <ele>94</ele>
        <time>2023-04-30T10:27:23Z</time>
      </trkpt>
      <trkpt lat="43.66822" lon="3.43901">
        <ele>101</ele>
        <time>2023-04-30T10:27:36Z</time>
      </trkpt>
      <trkpt lat="43.66849" lon="3.43902">
        <ele>100</ele>
        <time>2023-04-30T10:27:40Z</time>
      </trkpt>
      <trkpt lat="43.66896" lon="3.43934">
        <ele>106</ele>
        <time>2023-04-30T10:27:50Z</time>
      </trkpt>
      <trkpt lat="43.66912" lon="3.43961">
        <ele>109</ele>
        <time>2023-04-30T10:27:54Z</time>
      </trkpt>
      <trkpt lat="43.66921" lon="3.43986">
        <ele>113</ele>
        <time>2023-04-30T10:27:58Z</time>
      </trkpt>
      <trkpt lat="43.66926" lon="3.44029">
        <ele>120</ele>
        <time>2023-04-30T10:28:03Z</time>
      </trkpt>
      <trkpt lat="43.66935" lon="3.44046">
        <ele>122</ele>
        <time>2023-04-30T10:28:06Z</time>
      </trkpt>
      <trkpt lat="43.67033" lon="3.44173">
        <ele>132</ele>
        <time>2023-04-30T10:28:30Z</time>
      </trkpt>
      <trkpt lat="43.67061" lon="3.44191">
        <ele>135</ele>
        <time>2023-04-30T10:28:36Z</time>
      </trkpt>
      <trkpt lat="43.67104" lon="3.44236">
        <ele>142</ele>
        <time>2023-04-30T10:28:45Z</time>
      </trkpt>
      <trkpt lat="43.6712" lon="3.44242">
        <ele>142</ele>
        <time>2023-04-30T10:28:48Z</time>
      </trkpt>
      <trkpt lat="43.67121" lon="3.44247">
        <ele>142</ele>
        <time>2023-04-30T10:28:49Z</time>
      </trkpt>
      <trkpt lat="43.67118" lon="3.44253">
        <ele>144</ele>
        <time>2023-04-30T10:28:50Z</time>
      </trkpt>
      <trkpt lat="43.67019" lon="3.44232">
        <ele>146</ele>
        <time>2023-04-30T10:29:08Z</time>
      </trkpt>
      <trkpt lat="43.66981" lon="3.44218">
        <ele>145</ele>
        <time>2023-04-30T10:29:15Z</time>
      </trkpt>
      <trkpt lat="43.66955" lon="3.44201">
        <ele>145</ele>
        <time>2023-04-30T10:29:20Z</time>
      </trkpt>
      <trkpt lat="43.66909" lon="3.44189">
        <ele>148</ele>
        <time>2023-04-30T10:29:28Z</time>
      </trkpt>
      <trkpt lat="43.66899" lon="3.44194">
        <ele>148</ele>
        <time>2023-04-30T10:29:30Z</time>
      </trkpt>
      <trkpt lat="43.66889" lon="3.44209">
        <ele>149</ele>
        <time>2023-04-30T10:29:33Z</time>
      </trkpt>
      <trkpt lat="43.66888" lon="3.44221">
        <ele>149</ele>
        <time>2023-04-30T10:29:34Z</time>
      </trkpt>
      <trkpt lat="43.66892" lon="3.44231">
        <ele>150</ele>
        <time>2023-04-30T10:29:36Z</time>
      </trkpt>
      <trkpt lat="43.669" lon="3.44237">
        <ele>151</ele>
        <time>2023-04-30T10:29:37Z</time>
      </trkpt>
      <trkpt lat="43.6692" lon="3.44241">
        <ele>153</ele>
        <time>2023-04-30T10:29:41Z</time>
      </trkpt>
      <trkpt lat="43.66928" lon="3.44246">
        <ele>153</ele>
        <time>2023-04-30T10:29:42Z</time>
      </trkpt>
      <trkpt lat="43.66954" lon="3.44279">
        <ele>154</ele>
        <time>2023-04-30T10:29:49Z</time>
      </trkpt>
      <trkpt lat="43.67035" lon="3.4435">
        <ele>162</ele>
        <time>2023-04-30T10:30:06Z</time>
      </trkpt>
      <trkpt lat="43.67067" lon="3.44363">
        <ele>163</ele>
        <time>2023-04-30T10:30:12Z</time>
      </trkpt>
      <trkpt lat="43.6709" lon="3.44366">
        <ele>163</ele>
        <time>2023-04-30T10:30:16Z</time>
      </trkpt>
      <trkpt lat="43.67134" lon="3.44392">
        <ele>167</ele>
        <time>2023-04-30T10:30:24Z</time>
      </trkpt>
      <trkpt lat="43.67191" lon="3.44413">
        <ele>174</ele>
        <time>2023-04-30T10:30:35Z</time>
      </trkpt>
      <trkpt lat="43.67222" lon="3.44433">
        <ele>177</ele>
        <time>2023-04-30T10:30:41Z</time>
      </trkpt>
      <trkpt lat="43.67244" lon="3.4443">
        <ele>178</ele>
        <time>2023-04-30T10:30:45Z</time>
      </trkpt>
      <trkpt lat="43.67268" lon="3.44407">
        <ele>180</ele>
        <time>2023-04-30T10:30:50Z</time>
      </trkpt>
      <trkpt lat="43.6728" lon="3.44406">
        <ele>182</ele>
        <time>2023-04-30T10:30:52Z</time>
      </trkpt>
      <trkpt lat="43.67304" lon="3.44435">
        <ele>186</ele>
        <time>2023-04-30T10:30:58Z</time>
      </trkpt>
      <trkpt lat="43.67322" lon="3.44447">
        <ele>187</ele>
        <time>2023-04-30T10:31:01Z</time>
      </trkpt>
      <trkpt lat="43.67354" lon="3.44458">
        <ele>191</ele>
        <time>2023-04-30T10:31:07Z</time>
      </trkpt>
      <trkpt lat="43.67366" lon="3.44466">
        <ele>192</ele>
        <time>2023-04-30T10:31:10Z</time>
      </trkpt>
      <trkpt lat="43.67371" lon="3.44457">
        <ele>194</ele>
        <time>2023-04-30T10:31:11Z</time>
      </trkpt>
      <trkpt lat="43.67364" lon="3.44404">
        <ele>193</ele>
        <time>2023-04-30T10:31:18Z</time>
      </trkpt>
      <trkpt lat="43.67371" lon="3.44396">
        <ele>193</ele>
        <time>2023-04-30T10:31:20Z</time>
      </trkpt>
      <trkpt lat="43.6743" lon="3.44429">
        <ele>203</ele>
        <time>2023-04-30T10:31:31Z</time>
      </trkpt>
      <trkpt lat="43.67518" lon="3.44447">
        <ele>213</ele>
        <time>2023-04-30T10:31:47Z</time>
      </trkpt>
      <trkpt lat="43.67554" lon="3.44451">
        <ele>217</ele>
        <time>2023-04-30T10:31:53Z</time>
      </trkpt>
      <trkpt lat="43.67608" lon="3.44449">
        <ele>221</ele>
        <time>2023-04-30T10:32:03Z</time>
      </trkpt>
      <trkpt lat="43.6765" lon="3.44455">
        <ele>223</ele>
        <time>2023-04-30T10:32:10Z</time>
      </trkpt>
      <trkpt lat="43.67681" lon="3.44474">
        <ele>224</ele>
        <time>2023-04-30T10:32:16Z</time>
      </trkpt>
      <trkpt lat="43.67728" lon="3.44486">
        <ele>223</ele>
        <time>2023-04-30T10:32:25Z</time>
      </trkpt>
      <trkpt lat="43.67747" lon="3.44501">
        <ele>224</ele>
        <time>2023-04-30T10:32:29Z</time>
      </trkpt>
      <trkpt lat="43.6777" lon="3.44507">
        <ele>223</ele>
        <time>2023-04-30T10:32:33Z</time>
      </trkpt>
      <trkpt lat="43.6784" lon="3.44507">
        <ele>223</ele>
        <time>2023-04-30T10:32:45Z</time>
      </trkpt>
      <trkpt lat="43.67876" lon="3.44517">
        <ele>225</ele>
        <time>2023-04-30T10:32:52Z</time>
      </trkpt>
      <trkpt lat="43.67915" lon="3.44532">
        <ele>227</ele>
        <time>2023-04-30T10:32:59Z</time>
      </trkpt>
      <trkpt lat="43.67951" lon="3.44552">
        <ele>228</ele>
        <time>2023-04-30T10:33:06Z</time>
      </trkpt>
      <trkpt lat="43.67983" lon="3.44576">
        <ele>232</ele>
        <time>2023-04-30T10:33:12Z</time>
      </trkpt>
      <trkpt lat="43.68073" lon="3.44614">
        <ele>232</ele>
        <time>2023-04-30T10:33:29Z</time>
      </trkpt>
      <trkpt lat="43.68117" lon="3.44627">
        <ele>233</ele>
        <time>2023-04-30T10:33:37Z</time>
      </trkpt>
      <trkpt lat="43.68132" lon="3.44638">
        <ele>235</ele>
        <time>2023-04-30T10:33:40Z</time>
      </trkpt>
      <trkpt lat="43.68147" lon="3.44656">
        <ele>238</ele>
        <time>2023-04-30T10:33:44Z</time>
      </trkpt>
      <trkpt lat="43.68155" lon="3.44675">
        <ele>241</ele>
        <time>2023-04-30T10:33:47Z</time>
      </trkpt>
      <trkpt lat="43.6816" lon="3.4468">
        <ele>242</ele>
        <time>2023-04-30T10:33:48Z</time>
      </trkpt>
      <trkpt lat="43.68177" lon="3.44673">
        <ele>242</ele>
        <time>2023-04-30T10:33:51Z</time>
      </trkpt>
      <trkpt lat="43.68191" lon="3.44656">
        <ele>239</ele>
        <time>2023-04-30T10:33:54Z</time>
      </trkpt>
      <trkpt lat="43.68207" lon="3.44649">
        <ele>236</ele>
        <time>2023-04-30T10:33:57Z</time>
      </trkpt>
      <trkpt lat="43.68218" lon="3.44654">
        <ele>237</ele>
        <time>2023-04-30T10:33:59Z</time>
      </trkpt>
      <trkpt lat="43.68234" lon="3.44667">
        <ele>240</ele>
        <time>2023-04-30T10:34:02Z</time>
      </trkpt>
      <trkpt lat="43.6825" lon="3.44687">
        <ele>242</ele>
        <time>2023-04-30T10:34:06Z</time>
      </trkpt>
      <trkpt lat="43.68263" lon="3.44712">
        <ele>245</ele>
        <time>2023-04-30T10:34:10Z</time>
      </trkpt>
      <trkpt lat="43.68284" lon="3.44739">
        <ele>248</ele>
        <time>2023-04-30T10:34:15Z</time>
      </trkpt>
      <trkpt lat="43.68292" lon="3.44755">
        <ele>250</ele>
        <time>2023-04-30T10:34:18Z</time>
      </trkpt>
      <trkpt lat="43.68308" lon="3.44807">
        <ele>255</ele>
        <time>2023-04-30T10:34:25Z</time>
      </trkpt>
      <trkpt lat="43.68355" lon="3.44896">
        <ele>261</ele>
        <time>2023-04-30T10:34:39Z</time>
      </trkpt>
      <trkpt lat="43.68384" lon="3.44938">
        <ele>264</ele>
        <time>2023-04-30T10:34:47Z</time>
      </trkpt>
      <trkpt lat="43.68427" lon="3.44964">
        <ele>265</ele>
        <time>2023-04-30T10:34:55Z</time>
      </trkpt>
      <trkpt lat="43.68448" lon="3.44971">
        <ele>265</ele>
        <time>2023-04-30T10:34:59Z</time>
      </trkpt>
      <trkpt lat="43.68483" lon="3.44976">
        <ele>266</ele>
        <time>2023-04-30T10:35:05Z</time>
      </trkpt>
      <trkpt lat="43.685" lon="3.44984">
        <ele>267</ele>
        <time>2023-04-30T10:35:08Z</time>
      </trkpt>
      <trkpt lat="43.68551" lon="3.45019">
        <ele>267</ele>
        <time>2023-04-30T10:35:19Z</time>
      </trkpt>
      <trkpt lat="43.68597" lon="3.45056">
        <ele>266</ele>
        <time>2023-04-30T10:35:28Z</time>
      </trkpt>
      <trkpt lat="43.68667" lon="3.45084">
        <ele>264</ele>
        <time>2023-04-30T10:35:41Z</time>
      </trkpt>
      <trkpt lat="43.68677" lon="3.45097">
        <ele>263</ele>
        <time>2023-04-30T10:35:43Z</time>
      </trkpt>
      <trkpt lat="43.68683" lon="3.45115">
        <ele>263</ele>
        <time>2023-04-30T10:35:46Z</time>
      </trkpt>
      <trkpt lat="43.68689" lon="3.45157">
        <ele>266</ele>
        <time>2023-04-30T10:35:52Z</time>
      </trkpt>
      <trkpt lat="43.68685" lon="3.45225">
        <ele>265</ele>
        <time>2023-04-30T10:36:00Z</time>
      </trkpt>
      <trkpt lat="43.6869" lon="3.45321">
        <ele>262</ele>
        <time>2023-04-30T10:36:13Z</time>
      </trkpt>
      <trkpt lat="43.68701" lon="3.45369">
        <ele>260</ele>
        <time>2023-04-30T10:36:19Z</time>
      </trkpt>
      <trkpt lat="43.68713" lon="3.45402">
        <ele>260</ele>
        <time>2023-04-30T10:36:24Z</time>
      </trkpt>
      <trkpt lat="43.6877" lon="3.45474">
        <ele>257</ele>
        <time>2023-04-30T10:36:38Z</time>
      </trkpt>
      <trkpt lat="43.68812" lon="3.45513">
        <ele>254</ele>
        <time>2023-04-30T10:36:47Z</time>
      </trkpt>
      <trkpt lat="43.68851" lon="3.45532">
        <ele>251</ele>
        <time>2023-04-30T10:36:54Z</time>
      </trkpt>
      <trkpt lat="43.68874" lon="3.45535">
        <ele>249</ele>
        <time>2023-04-30T10:36:58Z</time>
      </trkpt>
      <trkpt lat="43.68933" lon="3.45533">
        <ele>247</ele>
        <time>2023-04-30T10:37:09Z</time>
      </trkpt>
      <trkpt lat="43.68973" lon="3.45537">
        <ele>246</ele>
        <time>2023-04-30T10:37:16Z</time>
      </trkpt>
      <trkpt lat="43.68988" lon="3.45544">
        <ele>245</ele>
        <time>2023-04-30T10:37:19Z</time>
      </trkpt>
      <trkpt lat="43.68991" lon="3.45551">
        <ele>244</ele>
        <time>2023-04-30T10:37:20Z</time>
      </trkpt>
      <trkpt lat="43.68992" lon="3.45567">
        <ele>242</ele>
        <time>2023-04-30T10:37:22Z</time>
      </trkpt>
      <trkpt lat="43.69002" lon="3.4559">
        <ele>239</ele>
        <time>2023-04-30T10:37:25Z</time>
      </trkpt>
      <trkpt lat="43.69023" lon="3.45618">
        <ele>237</ele>
        <time>2023-04-30T10:37:30Z</time>
      </trkpt>
      <trkpt lat="43.69039" lon="3.45627">
        <ele>236</ele>
        <time>2023-04-30T10:37:33Z</time>
      </trkpt>
      <trkpt lat="43.69051" lon="3.45631">
        <ele>235</ele>
        <time>2023-04-30T10:37:36Z</time>
      </trkpt>
      <trkpt lat="43.69148" lon="3.45639">
        <ele>231</ele>
        <time>2023-04-30T10:37:53Z</time>
      </trkpt>
      <trkpt lat="43.69178" lon="3.45651">
        <ele>229</ele>
        <time>2023-04-30T10:37:58Z</time>
      </trkpt>
      <trkpt lat="43.69238" lon="3.45701">
        <ele>229</ele>
        <time>2023-04-30T10:38:11Z</time>
      </trkpt>
      <trkpt lat="43.69262" lon="3.45737">
        <ele>231</ele>
        <time>2023-04-30T10:38:17Z</time>
      </trkpt>
      <trkpt lat="43.69274" lon="3.45751">
        <ele>232</ele>
        <time>2023-04-30T10:38:20Z</time>
      </trkpt>
      <trkpt lat="43.69314" lon="3.45783">
        <ele>232</ele>
        <time>2023-04-30T10:38:28Z</time>
      </trkpt>
      <trkpt lat="43.69367" lon="3.45813">
        <ele>237</ele>
        <time>2023-04-30T10:38:38Z</time>
      </trkpt>
      <trkpt lat="43.69396" lon="3.45817">
        <ele>240</ele>
        <time>2023-04-30T10:38:44Z</time>
      </trkpt>
      <trkpt lat="43.69409" lon="3.45823">
        <ele>241</ele>
        <time>2023-04-30T10:38:46Z</time>
      </trkpt>
      <trkpt lat="43.69432" lon="3.45843">
        <ele>244</ele>
        <time>2023-04-30T10:38:51Z</time>
      </trkpt>
      <trkpt lat="43.69508" lon="3.45933">
        <ele>254</ele>
        <time>2023-04-30T10:39:09Z</time>
      </trkpt>
      <trkpt lat="43.69553" lon="3.46006">
        <ele>257</ele>
        <time>2023-04-30T10:39:21Z</time>
      </trkpt>
      <trkpt lat="43.69564" lon="3.46014">
        <ele>259</ele>
        <time>2023-04-30T10:39:23Z</time>
      </trkpt>
      <trkpt lat="43.69577" lon="3.46034">
        <ele>259</ele>
        <time>2023-04-30T10:39:27Z</time>
      </trkpt>
      <trkpt lat="43.69599" lon="3.46051">
        <ele>258</ele>
        <time>2023-04-30T10:39:31Z</time>
      </trkpt>
      <trkpt lat="43.69628" lon="3.46042">
        <ele>260</ele>
        <time>2023-04-30T10:39:36Z</time>
      </trkpt>
      <trkpt lat="43.69669" lon="3.46025">
        <ele>265</ele>
        <time>2023-04-30T10:39:44Z</time>
      </trkpt>
      <trkpt lat="43.6969" lon="3.46022">
        <ele>264</ele>
        <time>2023-04-30T10:39:48Z</time>
      </trkpt>
      <trkpt lat="43.69713" lon="3.46022">
        <ele>263</ele>
        <time>2023-04-30T10:39:52Z</time>
      </trkpt>
      <trkpt lat="43.6976" lon="3.46028">
        <ele>259</ele>
        <time>2023-04-30T10:40:00Z</time>
      </trkpt>
      <trkpt lat="43.69789" lon="3.46045">
        <ele>259</ele>
        <time>2023-04-30T10:40:06Z</time>
      </trkpt>
      <trkpt lat="43.69814" lon="3.46071">
        <ele>262</ele>
        <time>2023-04-30T10:40:11Z</time>
      </trkpt>
      <trkpt lat="43.69842" lon="3.46091">
        <ele>268</ele>
        <time>2023-04-30T10:40:17Z</time>
      </trkpt>
      <trkpt lat="43.69851" lon="3.46113">
        <ele>269</ele>
        <time>2023-04-30T10:40:20Z</time>
      </trkpt>
      <trkpt lat="43.69873" lon="3.46187">
        <ele>274</ele>
        <time>2023-04-30T10:40:31Z</time>
      </trkpt>
      <trkpt lat="43.69885" lon="3.46215">
        <ele>274</ele>
        <time>2023-04-30T10:40:35Z</time>
      </trkpt>
      <trkpt lat="43.69914" lon="3.46242">
        <ele>277</ele>
        <time>2023-04-30T10:40:41Z</time>
      </trkpt>
      <trkpt lat="43.69975" lon="3.4627">
        <ele>279</ele>
        <time>2023-04-30T10:40:52Z</time>
      </trkpt>
      <trkpt lat="43.70026" lon="3.46261">
        <ele>280</ele>
        <time>2023-04-30T10:41:02Z</time>
      </trkpt>
      <trkpt lat="43.7004" lon="3.46271">
        <ele>280</ele>
        <time>2023-04-30T10:41:04Z</time>
      </trkpt>
      <trkpt lat="43.70069" lon="3.46337">
        <ele>285</ele>
        <time>2023-04-30T10:41:14Z</time>
      </trkpt>
      <trkpt lat="43.70076" lon="3.4638">
        <ele>287</ele>
        <time>2023-04-30T10:41:20Z</time>
      </trkpt>
      <trkpt lat="43.70072" lon="3.46443">
        <ele>286</ele>
        <time>2023-04-30T10:41:28Z</time>
      </trkpt>
      <trkpt lat="43.7008" lon="3.46457">
        <ele>287</ele>
        <time>2023-04-30T10:41:30Z</time>
      </trkpt>
      <trkpt lat="43.70114" lon="3.46481">
        <ele>286</ele>
        <time>2023-04-30T10:41:37Z</time>
      </trkpt>
      <trkpt lat="43.70148" lon="3.46492">
        <ele>287</ele>
        <time>2023-04-30T10:41:43Z</time>
      </trkpt>
      <trkpt lat="43.70247" lon="3.46499">
        <ele>283</ele>
        <time>2023-04-30T10:42:01Z</time>
      </trkpt>
      <trkpt lat="43.70264" lon="3.46498">
        <ele>283</ele>
        <time>2023-04-30T10:42:04Z</time>
      </trkpt>
      <trkpt lat="43.70291" lon="3.4649">
        <ele>282</ele>
        <time>2023-04-30T10:42:09Z</time>
      </trkpt>
      <trkpt lat="43.70335" lon="3.46493">
        <ele>284</ele>
        <time>2023-04-30T10:42:17Z</time>
      </trkpt>
      <trkpt lat="43.7039" lon="3.46515">
        <ele>283</ele>
        <time>2023-04-30T10:42:27Z</time>
      </trkpt>
      <trkpt lat="43.70413" lon="3.46517">
        <ele>282</ele>
        <time>2023-04-30T10:42:31Z</time>
      </trkpt>
      <trkpt lat="43.70436" lon="3.46533">
        <ele>281</ele>
        <time>2023-04-30T10:42:36Z</time>
      </trkpt>
      <trkpt lat="43.70456" lon="3.46564">
        <ele>284</ele>
        <time>2023-04-30T10:42:41Z</time>
      </trkpt>
      <trkpt lat="43.70462" lon="3.46583">
        <ele>287</ele>
        <time>2023-04-30T10:42:44Z</time>
      </trkpt>
      <trkpt lat="43.70486" lon="3.4661">
        <ele>284</ele>
        <time>2023-04-30T10:42:49Z</time>
      </trkpt>
      <trkpt lat="43.705" lon="3.46633">
        <ele>283</ele>
        <time>2023-04-30T10:42:53Z</time>
      </trkpt>
      <trkpt lat="43.70504" lon="3.46642">
        <ele>283</ele>
        <time>2023-04-30T10:42:54Z</time>
      </trkpt>
      <trkpt lat="43.70506" lon="3.4668">
        <ele>283</ele>
        <time>2023-04-30T10:42:59Z</time>
      </trkpt>
      <trkpt lat="43.70508" lon="3.46684">
        <ele>283</ele>
        <time>2023-04-30T10:43:00Z</time>
      </trkpt>
      <trkpt lat="43.70493" lon="3.46727">
        <ele>282</ele>
        <time>2023-04-30T10:43:06Z</time>
      </trkpt>
      <trkpt lat="43.70475" lon="3.46753">
        <ele>282</ele>
        <time>2023-04-30T10:43:11Z</time>
      </trkpt>
      <trkpt lat="43.70449" lon="3.46773">
        <ele>282</ele>
        <time>2023-04-30T10:43:16Z</time>
      </trkpt>
      <trkpt lat="43.70422" lon="3.46787">
        <ele>279</ele>
        <time>2023-04-30T10:43:21Z</time>
      </trkpt>
      <trkpt lat="43.70385" lon="3.46794">
        <ele>276</ele>
        <time>2023-04-30T10:43:28Z</time>
      </trkpt>
      <trkpt lat="43.70345" lon="3.46794">
        <ele>274</ele>
        <time>2023-04-30T10:43:35Z</time>
      </trkpt>
      <trkpt lat="43.70313" lon="3.46789">
        <ele>273</ele>
        <time>2023-04-30T10:43:41Z</time>
      </trkpt>
      <trkpt lat="43.70277" lon="3.46773">
        <ele>273</ele>
        <time>2023-04-30T10:43:47Z</time>
      </trkpt>
      <trkpt lat="43.7025" lon="3.46757">
        <ele>272</ele>
        <time>2023-04-30T10:43:53Z</time>
      </trkpt>
      <trkpt lat="43.70228" lon="3.46735">
        <ele>270</ele>
        <time>2023-04-30T10:43:57Z</time>
      </trkpt>
      <trkpt lat="43.70207" lon="3.46698">
        <ele>269</ele>
        <time>2023-04-30T10:44:04Z</time>
      </trkpt>
      <trkpt lat="43.70186" lon="3.46648">
        <ele>270</ele>
        <time>2023-04-30T10:44:11Z</time>
      </trkpt>
      <trkpt lat="43.70172" lon="3.46629">
        <ele>269</ele>
        <time>2023-04-30T10:44:14Z</time>
      </trkpt>
      <trkpt lat="43.70158" lon="3.46615">
        <ele>269</ele>
        <time>2023-04-30T10:44:18Z</time>
      </trkpt>
      <trkpt lat="43.69829" lon="3.46516">
        <ele>249</ele>
        <time>2023-04-30T10:45:17Z</time>
      </trkpt>
      <trkpt lat="43.69627" lon="3.46429">
        <ele>226</ele>
        <time>2023-04-30T10:45:55Z</time>
      </trkpt>
      <trkpt lat="43.6932" lon="3.46448">
        <ele>197</ele>
        <time>2023-04-30T10:46:50Z</time>
      </trkpt>
      <trkpt lat="43.69315" lon="3.46457">
        <ele>197</ele>
        <time>2023-04-30T10:46:51Z</time>
      </trkpt>
      <trkpt lat="43.69317" lon="3.46473">
        <ele>199</ele>
        <time>2023-04-30T10:46:53Z</time>
      </trkpt>
      <trkpt lat="43.69339" lon="3.46532">
        <ele>202</ele>
        <time>2023-04-30T10:47:02Z</time>
      </trkpt>
      <trkpt lat="43.69355" lon="3.46593">
        <ele>199</ele>
        <time>2023-04-30T10:47:10Z</time>
      </trkpt>
      <trkpt lat="43.69258" lon="3.46496">
        <ele>188</ele>
        <time>2023-04-30T10:47:32Z</time>
      </trkpt>
      <trkpt lat="43.69258" lon="3.46538">
        <ele>186</ele>
        <time>2023-04-30T10:47:37Z</time>
      </trkpt>
      <trkpt lat="43.69253" lon="3.46609">
        <ele>180</ele>
        <time>2023-04-30T10:47:46Z</time>
      </trkpt>
      <trkpt lat="43.69312" lon="3.46677">
        <ele>183</ele>
        <time>2023-04-30T10:48:00Z</time>
      </trkpt>
      <trkpt lat="43.69327" lon="3.46788">
        <ele>174</ele>
        <time>2023-04-30T10:48:14Z</time>
      </trkpt>
      <trkpt lat="43.69343" lon="3.46863">
        <ele>170</ele>
        <time>2023-04-30T10:48:24Z</time>
      </trkpt>
      <trkpt lat="43.69305" lon="3.46922">
        <ele>163</ele>
        <time>2023-04-30T10:48:35Z</time>
      </trkpt>
      <trkpt lat="43.69303" lon="3.46948">
        <ele>162</ele>
        <time>2023-04-30T10:48:38Z</time>
      </trkpt>
      <trkpt lat="43.69298" lon="3.46974">
        <ele>162</ele>
        <time>2023-04-30T10:48:41Z</time>
      </trkpt>
      <trkpt lat="43.69292" lon="3.4699">
        <ele>162</ele>
        <time>2023-04-30T10:48:44Z</time>
      </trkpt>
      <trkpt lat="43.69255" lon="3.4706">
        <ele>158</ele>
        <time>2023-04-30T10:48:55Z</time>
      </trkpt>
      <trkpt lat="43.69226" lon="3.471">
        <ele>156</ele>
        <time>2023-04-30T10:49:02Z</time>
      </trkpt>
      <trkpt lat="43.69147" lon="3.47225">
        <ele>152</ele>
        <time>2023-04-30T10:49:23Z</time>
      </trkpt>
      <trkpt lat="43.69075" lon="3.474">
        <ele>149</ele>
        <time>2023-04-30T10:49:49Z</time>
      </trkpt>
      <trkpt lat="43.68869" lon="3.47774">
        <ele>140</ele>
        <time>2023-04-30T10:50:50Z</time>
      </trkpt>
      <trkpt lat="43.68681" lon="3.47992">
        <ele>136</ele>
        <time>2023-04-30T10:51:34Z</time>
      </trkpt>
      <trkpt lat="43.6846" lon="3.47875">
        <ele>130</ele>
        <time>2023-04-30T10:52:16Z</time>
      </trkpt>
      <trkpt lat="43.68428" lon="3.47802">
        <ele>128</ele>
        <time>2023-04-30T10:52:27Z</time>
      </trkpt>
      <trkpt lat="43.68302" lon="3.47765">
        <ele>127</ele>
        <time>2023-04-30T10:52:50Z</time>
      </trkpt>
      <trkpt lat="43.68092" lon="3.47682">
        <ele>121</ele>
        <time>2023-04-30T10:53:28Z</time>
      </trkpt>
      <trkpt lat="43.67891" lon="3.47659">
        <ele>117</ele>
        <time>2023-04-30T10:54:04Z</time>
      </trkpt>
      <trkpt lat="43.67755" lon="3.4769">
        <ele>118</ele>
        <time>2023-04-30T10:54:29Z</time>
      </trkpt>
      <trkpt lat="43.6772" lon="3.47693">
        <ele>118</ele>
        <time>2023-04-30T10:54:35Z</time>
      </trkpt>
      <trkpt lat="43.67736" lon="3.47751">
        <ele>117</ele>
        <time>2023-04-30T10:54:43Z</time>
      </trkpt>
      <trkpt lat="43.6779" lon="3.47993">
        <ele>117</ele>
        <time>2023-04-30T10:55:16Z</time>
      </trkpt>
      <trkpt lat="43.67833" lon="3.48127">
        <ele>117</ele>
        <time>2023-04-30T10:55:34Z</time>
      </trkpt>
      <trkpt lat="43.67836" lon="3.48153">
        <ele>117</ele>
        <time>2023-04-30T10:55:38Z</time>
      </trkpt>
      <trkpt lat="43.67839" lon="3.48265">
        <ele>118</ele>
        <time>2023-04-30T10:55:52Z</time>
      </trkpt>
      <trkpt lat="43.67843" lon="3.48295">
        <ele>119</ele>
        <time>2023-04-30T10:55:56Z</time>
      </trkpt>
      <trkpt lat="43.67853" lon="3.48343">
        <ele>119</ele>
        <time>2023-04-30T10:56:03Z</time>
      </trkpt>
      <trkpt lat="43.67868" lon="3.48395">
        <ele>119</ele>
        <time>2023-04-30T10:56:10Z</time>
      </trkpt>
      <trkpt lat="43.67882" lon="3.48433">
        <ele>120</ele>
        <time>2023-04-30T10:56:15Z</time>
      </trkpt>
      <trkpt lat="43.68199" lon="3.49096">
        <ele>124</ele>
        <time>2023-04-30T10:57:58Z</time>
      </trkpt>
      <trkpt lat="43.6821" lon="3.49116">
        <ele>125</ele>
        <time>2023-04-30T10:58:01Z</time>
      </trkpt>
      <trkpt lat="43.68262" lon="3.49173">
        <ele>126</ele>
        <time>2023-04-30T10:58:13Z</time>
      </trkpt>
      <trkpt lat="43.68276" lon="3.49198">
        <ele>125</ele>
        <time>2023-04-30T10:58:17Z</time>
      </trkpt>
      <trkpt lat="43.68299" lon="3.49253">
        <ele>124</ele>
        <time>2023-04-30T10:58:25Z</time>
      </trkpt>
      <trkpt lat="43.68312" lon="3.49274">
        <ele>123</ele>
        <time>2023-04-30T10:58:28Z</time>
      </trkpt>
      <trkpt lat="43.68304" lon="3.49275">
        <ele>123</ele>
        <time>2023-04-30T10:58:30Z</time>
      </trkpt>
      <trkpt lat="43.68285" lon="3.49283">
        <ele>122</ele>
        <time>2023-04-30T10:58:33Z</time>
      </trkpt>
      <trkpt lat="43.68268" lon="3.49294">
        <ele>122</ele>
        <time>2023-04-30T10:58:37Z</time>
      </trkpt>
      <trkpt lat="43.68192" lon="3.49369">
        <ele>119</ele>
        <time>2023-04-30T10:58:53Z</time>
      </trkpt>
      <trkpt lat="43.68159" lon="3.49389">
        <ele>119</ele>
        <time>2023-04-30T10:59:00Z</time>
      </trkpt>
      <trkpt lat="43.68141" lon="3.49405">
        <ele>119</ele>
        <time>2023-04-30T10:59:04Z</time>
      </trkpt>
      <trkpt lat="43.68109" lon="3.49408">
        <ele>119</ele>
        <time>2023-04-30T10:59:09Z</time>
      </trkpt>
      <trkpt lat="43.67992" lon="3.49453">
        <ele>118</ele>
        <time>2023-04-30T10:59:31Z</time>
      </trkpt>
      <trkpt lat="43.67881" lon="3.49486">
        <ele>115</ele>
        <time>2023-04-30T10:59:51Z</time>
      </trkpt>
      <trkpt lat="43.67815" lon="3.49486">
        <ele>115</ele>
        <time>2023-04-30T11:00:03Z</time>
      </trkpt>
      <trkpt lat="43.67717" lon="3.4947">
        <ele>114</ele>
        <time>2023-04-30T11:00:20Z</time>
      </trkpt>
      <trkpt lat="43.67643" lon="3.49438">
        <ele>112</ele>
        <time>2023-04-30T11:00:34Z</time>
      </trkpt>
      <trkpt lat="43.67618" lon="3.49437">
        <ele>111</ele>
        <time>2023-04-30T11:00:39Z</time>
      </trkpt>
      <trkpt lat="43.67581" lon="3.49461">
        <ele>111</ele>
        <time>2023-04-30T11:00:46Z</time>
      </trkpt>
      <trkpt lat="43.67451" lon="3.49511">
        <ele>108</ele>
        <time>2023-04-30T11:01:10Z</time>
      </trkpt>
      <trkpt lat="43.67414" lon="3.49521">
        <ele>107</ele>
        <time>2023-04-30T11:01:17Z</time>
      </trkpt>
      <trkpt lat="43.67326" lon="3.49581">
        <ele>106</ele>
        <time>2023-04-30T11:01:34Z</time>
      </trkpt>
      <trkpt lat="43.67269" lon="3.49614">
        <ele>105</ele>
        <time>2023-04-30T11:01:45Z</time>
      </trkpt>
      <trkpt lat="43.67192" lon="3.49638">
        <ele>104</ele>
        <time>2023-04-30T11:01:59Z</time>
      </trkpt>
      <trkpt lat="43.67096" lon="3.49661">
        <ele>103</ele>
        <time>2023-04-30T11:02:16Z</time>
      </trkpt>
      <trkpt lat="43.67018" lon="3.49691">
        <ele>102</ele>
        <time>2023-04-30T11:02:31Z</time>
      </trkpt>
      <trkpt lat="43.66942" lon="3.49708">
        <ele>99</ele>
        <time>2023-04-30T11:02:45Z</time>
      </trkpt>
      <trkpt lat="43.6687" lon="3.49713">
        <ele>97</ele>
        <time>2023-04-30T11:02:57Z</time>
      </trkpt>
      <trkpt lat="43.66815" lon="3.4971">
        <ele>96</ele>
        <time>2023-04-30T11:03:07Z</time>
      </trkpt>
      <trkpt lat="43.6676" lon="3.49727">
        <ele>96</ele>
        <time>2023-04-30T11:03:17Z</time>
      </trkpt>
      <trkpt lat="43.6666" lon="3.49747">
        <ele>93</ele>
        <time>2023-04-30T11:03:35Z</time>
      </trkpt>
      <trkpt lat="43.66593" lon="3.49757">
        <ele>92</ele>
        <time>2023-04-30T11:03:47Z</time>
      </trkpt>
      <trkpt lat="43.66502" lon="3.49828">
        <ele>90</ele>
        <time>2023-04-30T11:04:06Z</time>
      </trkpt>
      <trkpt lat="43.66543" lon="3.49902">
        <ele>90</ele>
        <time>2023-04-30T11:04:18Z</time>
      </trkpt>
      <trkpt lat="43.66719" lon="3.49961">
        <ele>93</ele>
        <time>2023-04-30T11:04:50Z</time>
      </trkpt>
      <trkpt lat="43.66821" lon="3.49988">
        <ele>96</ele>
        <time>2023-04-30T11:05:08Z</time>
      </trkpt>
      <trkpt lat="43.66919" lon="3.50032">
        <ele>96</ele>
        <time>2023-04-30T11:05:27Z</time>
      </trkpt>
      <trkpt lat="43.66988" lon="3.50078">
        <ele>96</ele>
        <time>2023-04-30T11:05:40Z</time>
      </trkpt>
      <trkpt lat="43.67044" lon="3.50131">
        <ele>97</ele>
        <time>2023-04-30T11:05:53Z</time>
      </trkpt>
      <trkpt lat="43.67094" lon="3.50191">
        <ele>96</ele>
        <time>2023-04-30T11:06:04Z</time>
      </trkpt>
      <trkpt lat="43.67127" lon="3.50247">
        <ele>98</ele>
        <time>2023-04-30T11:06:14Z</time>
      </trkpt>
      <trkpt lat="43.67158" lon="3.5027">
        <ele>99</ele>
        <time>2023-04-30T11:06:20Z</time>
      </trkpt>
      <trkpt lat="43.67196" lon="3.50287">
        <ele>99</ele>
        <time>2023-04-30T11:06:27Z</time>
      </trkpt>
      <trkpt lat="43.67234" lon="3.50312">
        <ele>100</ele>
        <time>2023-04-30T11:06:34Z</time>
      </trkpt>
      <trkpt lat="43.67323" lon="3.5035">
        <ele>101</ele>
        <time>2023-04-30T11:06:51Z</time>
      </trkpt>
      <trkpt lat="43.67373" lon="3.5039">
        <ele>102</ele>
        <time>2023-04-30T11:07:01Z</time>
      </trkpt>
      <trkpt lat="43.67408" lon="3.50426">
        <ele>102</ele>
        <time>2023-04-30T11:07:09Z</time>
      </trkpt>
      <trkpt lat="43.67434" lon="3.50489">
        <ele>103</ele>
        <time>2023-04-30T11:07:18Z</time>
      </trkpt>
      <trkpt lat="43.67442" lon="3.50527">
        <ele>102</ele>
        <time>2023-04-30T11:07:23Z</time>
      </trkpt>
      <trkpt lat="43.67518" lon="3.5062">
        <ele>102</ele>
        <time>2023-04-30T11:07:42Z</time>
      </trkpt>
      <trkpt lat="43.67539" lon="3.50655">
        <ele>101</ele>
        <time>2023-04-30T11:07:47Z</time>
      </trkpt>
      <trkpt lat="43.67568" lon="3.50683">
        <ele>100</ele>
        <time>2023-04-30T11:07:54Z</time>
      </trkpt>
      <trkpt lat="43.67558" lon="3.50713">
        <ele>99</ele>
        <time>2023-04-30T11:07:58Z</time>
      </trkpt>
      <trkpt lat="43.67545" lon="3.50738">
        <ele>99</ele>
        <time>2023-04-30T11:08:02Z</time>
      </trkpt>
      <trkpt lat="43.67505" lon="3.50804">
        <ele>98</ele>
        <time>2023-04-30T11:08:13Z</time>
      </trkpt>
      <trkpt lat="43.67462" lon="3.50865">
        <ele>98</ele>
        <time>2023-04-30T11:08:24Z</time>
      </trkpt>
      <trkpt lat="43.67553" lon="3.50866">
        <ele>95</ele>
        <time>2023-04-30T11:08:40Z</time>
      </trkpt>
      <trkpt lat="43.67578" lon="3.50863">
        <ele>94</ele>
        <time>2023-04-30T11:08:45Z</time>
      </trkpt>
      <trkpt lat="43.67587" lon="3.50865">
        <ele>93</ele>
        <time>2023-04-30T11:08:46Z</time>
      </trkpt>
      <trkpt lat="43.67603" lon="3.50875">
        <ele>90</ele>
        <time>2023-04-30T11:08:49Z</time>
      </trkpt>
      <trkpt lat="43.67613" lon="3.50876">
        <ele>89</ele>
        <time>2023-04-30T11:08:51Z</time>
      </trkpt>
      <trkpt lat="43.67621" lon="3.5087">
        <ele>88</ele>
        <time>2023-04-30T11:08:53Z</time>
      </trkpt>
      <trkpt lat="43.67656" lon="3.50824">
        <ele>84</ele>
        <time>2023-04-30T11:09:01Z</time>
      </trkpt>
      <trkpt lat="43.67683" lon="3.50797">
        <ele>82</ele>
        <time>2023-04-30T11:09:07Z</time>
      </trkpt>
      <trkpt lat="43.67709" lon="3.50783">
        <ele>82</ele>
        <time>2023-04-30T11:09:12Z</time>
      </trkpt>
      <trkpt lat="43.67718" lon="3.50772">
        <ele>81</ele>
        <time>2023-04-30T11:09:14Z</time>
      </trkpt>
      <trkpt lat="43.67728" lon="3.50749">
        <ele>81</ele>
        <time>2023-04-30T11:09:18Z</time>
      </trkpt>
      <trkpt lat="43.67738" lon="3.50743">
        <ele>81</ele>
        <time>2023-04-30T11:09:20Z</time>
      </trkpt>
      <trkpt lat="43.67755" lon="3.50744">
        <ele>81</ele>
        <time>2023-04-30T11:09:23Z</time>
      </trkpt>
      <trkpt lat="43.67765" lon="3.50739">
        <ele>82</ele>
        <time>2023-04-30T11:09:25Z</time>
      </trkpt>
      <trkpt lat="43.67781" lon="3.5072">
        <ele>84</ele>
        <time>2023-04-30T11:09:28Z</time>
      </trkpt>
      <trkpt lat="43.6779" lon="3.50715">
        <ele>86</ele>
        <time>2023-04-30T11:09:30Z</time>
      </trkpt>
      <trkpt lat="43.67842" lon="3.5071">
        <ele>93</ele>
        <time>2023-04-30T11:09:39Z</time>
      </trkpt>
      <trkpt lat="43.67854" lon="3.50705">
        <ele>95</ele>
        <time>2023-04-30T11:09:42Z</time>
      </trkpt>
      <trkpt lat="43.67865" lon="3.50693">
        <ele>97</ele>
        <time>2023-04-30T11:09:44Z</time>
      </trkpt>
      <trkpt lat="43.67886" lon="3.50651">
        <ele>98</ele>
        <time>2023-04-30T11:09:51Z</time>
      </trkpt>
      <trkpt lat="43.67897" lon="3.50636">
        <ele>98</ele>
        <time>2023-04-30T11:09:53Z</time>
      </trkpt>
      <trkpt lat="43.67919" lon="3.50624">
        <ele>100</ele>
        <time>2023-04-30T11:09:58Z</time>
      </trkpt>
      <trkpt lat="43.67998" lon="3.50595">
        <ele>110</ele>
        <time>2023-04-30T11:10:12Z</time>
      </trkpt>
      <trkpt lat="43.68006" lon="3.50583">
        <ele>111</ele>
        <time>2023-04-30T11:10:14Z</time>
      </trkpt>
      <trkpt lat="43.68013" lon="3.50561">
        <ele>110</ele>
        <time>2023-04-30T11:10:17Z</time>
      </trkpt>
      <trkpt lat="43.68025" lon="3.50553">
        <ele>111</ele>
        <time>2023-04-30T11:10:20Z</time>
      </trkpt>
      <trkpt lat="43.6805" lon="3.50545">
        <ele>113</ele>
        <time>2023-04-30T11:10:24Z</time>
      </trkpt>
      <trkpt lat="43.68065" lon="3.50596">
        <ele>117</ele>
        <time>2023-04-30T11:10:31Z</time>
      </trkpt>
      <trkpt lat="43.67995" lon="3.50656">
        <ele>111</ele>
        <time>2023-04-30T11:10:46Z</time>
      </trkpt>
      <trkpt lat="43.67965" lon="3.50667">
        <ele>108</ele>
        <time>2023-04-30T11:10:52Z</time>
      </trkpt>
      <trkpt lat="43.67949" lon="3.50683">
        <ele>107</ele>
        <time>2023-04-30T11:10:55Z</time>
      </trkpt>
      <trkpt lat="43.67941" lon="3.50698">
        <ele>107</ele>
        <time>2023-04-30T11:10:58Z</time>
      </trkpt>
      <trkpt lat="43.67935" lon="3.50727">
        <ele>107</ele>
        <time>2023-04-30T11:11:01Z</time>
      </trkpt>
      <trkpt lat="43.67885" lon="3.50858">
        <ele>103</ele>
        <time>2023-04-30T11:11:20Z</time>
      </trkpt>
      <trkpt lat="43.67834" lon="3.50962">
        <ele>103</ele>
        <time>2023-04-30T11:11:37Z</time>
      </trkpt>
      <trkpt lat="43.67802" lon="3.51012">
        <ele>101</ele>
        <time>2023-04-30T11:11:45Z</time>
      </trkpt>
      <trkpt lat="43.67737" lon="3.51131">
        <ele>98</ele>
        <time>2023-04-30T11:12:04Z</time>
      </trkpt>
      <trkpt lat="43.67684" lon="3.51201">
        <ele>97</ele>
        <time>2023-04-30T11:12:17Z</time>
      </trkpt>
      <trkpt lat="43.67606" lon="3.51346">
        <ele>95</ele>
        <time>2023-04-30T11:12:41Z</time>
      </trkpt>
      <trkpt lat="43.6756" lon="3.51443">
        <ele>94</ele>
        <time>2023-04-30T11:12:56Z</time>
      </trkpt>
      <trkpt lat="43.67542" lon="3.51523">
        <ele>94</ele>
        <time>2023-04-30T11:13:06Z</time>
      </trkpt>
      <trkpt lat="43.67535" lon="3.51666">
        <ele>91</ele>
        <time>2023-04-30T11:13:25Z</time>
      </trkpt>
      <trkpt lat="43.67525" lon="3.51735">
        <ele>92</ele>
        <time>2023-04-30T11:13:34Z</time>
      </trkpt>
      <trkpt lat="43.67485" lon="3.51936">
        <ele>91</ele>
        <time>2023-04-30T11:14:01Z</time>
      </trkpt>
      <trkpt lat="43.67457" lon="3.51994">
        <ele>91</ele>
        <time>2023-04-30T11:14:10Z</time>
      </trkpt>
      <trkpt lat="43.67448" lon="3.52121">
        <ele>94</ele>
        <time>2023-04-30T11:14:26Z</time>
      </trkpt>
      <trkpt lat="43.67393" lon="3.52135">
        <ele>91</ele>
        <time>2023-04-30T11:14:36Z</time>
      </trkpt>
      <trkpt lat="43.67368" lon="3.52147">
        <ele>90</ele>
        <time>2023-04-30T11:14:41Z</time>
      </trkpt>
      <trkpt lat="43.67355" lon="3.52157">
        <ele>90</ele>
        <time>2023-04-30T11:14:43Z</time>
      </trkpt>
      <trkpt lat="43.67342" lon="3.52172">
        <ele>90</ele>
        <time>2023-04-30T11:14:46Z</time>
      </trkpt>
      <trkpt lat="43.67326" lon="3.52201">
        <ele>90</ele>
        <time>2023-04-30T11:14:51Z</time>
      </trkpt>
      <trkpt lat="43.67305" lon="3.5232">
        <ele>89</ele>
        <time>2023-04-30T11:15:07Z</time>
      </trkpt>
      <trkpt lat="43.67297" lon="3.52349">
        <ele>88</ele>
        <time>2023-04-30T11:15:11Z</time>
      </trkpt>
      <trkpt lat="43.67288" lon="3.52371">
        <ele>87</ele>
        <time>2023-04-30T11:15:14Z</time>
      </trkpt>
      <trkpt lat="43.67274" lon="3.52393">
        <ele>86</ele>
        <time>2023-04-30T11:15:18Z</time>
      </trkpt>
      <trkpt lat="43.67285" lon="3.52405">
        <ele>87</ele>
        <time>2023-04-30T11:15:20Z</time>
      </trkpt>
      <trkpt lat="43.67326" lon="3.52437">
        <ele>88</ele>
        <time>2023-04-30T11:15:29Z</time>
      </trkpt>
      <trkpt lat="43.6733" lon="3.52444">
        <ele>89</ele>
        <time>2023-04-30T11:15:30Z</time>
      </trkpt>
      <trkpt lat="43.67331" lon="3.5246">
        <ele>88</ele>
        <time>2023-04-30T11:15:32Z</time>
      </trkpt>
      <trkpt lat="43.67227" lon="3.52889">
        <ele>77</ele>
        <time>2023-04-30T11:16:30Z</time>
      </trkpt>
      <trkpt lat="43.67198" lon="3.53233">
        <ele>68</ele>
        <time>2023-04-30T11:17:15Z</time>
      </trkpt>
      <trkpt lat="43.67204" lon="3.536">
        <ele>69</ele>
        <time>2023-04-30T11:18:02Z</time>
      </trkpt>
      <trkpt lat="43.67176" lon="3.53701">
        <ele>71</ele>
        <time>2023-04-30T11:18:16Z</time>
      </trkpt>
      <trkpt lat="43.6715" lon="3.53741">
        <ele>71</ele>
        <time>2023-04-30T11:18:23Z</time>
      </trkpt>
      <trkpt lat="43.67082" lon="3.53828">
        <ele>64</ele>
        <time>2023-04-30T11:18:39Z</time>
      </trkpt>
      <trkpt lat="43.67065" lon="3.53843">
        <ele>63</ele>
        <time>2023-04-30T11:18:43Z</time>
      </trkpt>
      <trkpt lat="43.67048" lon="3.53854">
        <ele>62</ele>
        <time>2023-04-30T11:18:46Z</time>
      </trkpt>
      <trkpt lat="43.67031" lon="3.53862">
        <ele>61</ele>
        <time>2023-04-30T11:18:50Z</time>
      </trkpt>
      <trkpt lat="43.66974" lon="3.53869">
        <ele>58</ele>
        <time>2023-04-30T11:19:00Z</time>
      </trkpt>
      <trkpt lat="43.6695" lon="3.53875">
        <ele>57</ele>
        <time>2023-04-30T11:19:04Z</time>
      </trkpt>
      <trkpt lat="43.66791" lon="3.53948">
        <ele>51</ele>
        <time>2023-04-30T11:19:34Z</time>
      </trkpt>
      <trkpt lat="43.66777" lon="3.53951">
        <ele>51</ele>
        <time>2023-04-30T11:19:36Z</time>
      </trkpt>
      <trkpt lat="43.66621" lon="3.53918">
        <ele>50</ele>
        <time>2023-04-30T11:20:04Z</time>
      </trkpt>
      <trkpt lat="43.6658" lon="3.53884">
        <ele>50</ele>
        <time>2023-04-30T11:20:13Z</time>
      </trkpt>
      <trkpt lat="43.66511" lon="3.53795">
        <ele>48</ele>
        <time>2023-04-30T11:20:30Z</time>
      </trkpt>
      <trkpt lat="43.66497" lon="3.53784">
        <ele>48</ele>
        <time>2023-04-30T11:20:33Z</time>
      </trkpt>
      <trkpt lat="43.66469" lon="3.53771">
        <ele>46</ele>
        <time>2023-04-30T11:20:38Z</time>
      </trkpt>
      <trkpt lat="43.66281" lon="3.53766">
        <ele>49</ele>
        <time>2023-04-30T11:21:11Z</time>
      </trkpt>
      <trkpt lat="43.66268" lon="3.53769">
        <ele>49</ele>
        <time>2023-04-30T11:21:14Z</time>
      </trkpt>
      <trkpt lat="43.66237" lon="3.53793">
        <ele>49</ele>
        <time>2023-04-30T11:21:20Z</time>
      </trkpt>
      <trkpt lat="43.66226" lon="3.53809">
        <ele>49</ele>
        <time>2023-04-30T11:21:23Z</time>
      </trkpt>
      <trkpt lat="43.66179" lon="3.53917">
        <ele>49</ele>
        <time>2023-04-30T11:21:39Z</time>
      </trkpt>
      <trkpt lat="43.66134" lon="3.54011">
        <ele>50</ele>
        <time>2023-04-30T11:21:54Z</time>
      </trkpt>
      <trkpt lat="43.66063" lon="3.54149">
        <ele>51</ele>
        <time>2023-04-30T11:22:15Z</time>
      </trkpt>
      <trkpt lat="43.66043" lon="3.54196">
        <ele>51</ele>
        <time>2023-04-30T11:22:22Z</time>
      </trkpt>
      <trkpt lat="43.66019" lon="3.54293">
        <ele>52</ele>
        <time>2023-04-30T11:22:36Z</time>
      </trkpt>
      <trkpt lat="43.65956" lon="3.54583">
        <ele>52</ele>
        <time>2023-04-30T11:23:15Z</time>
      </trkpt>
      <trkpt lat="43.65904" lon="3.54567">
        <ele>50</ele>
        <time>2023-04-30T11:23:24Z</time>
      </trkpt>
      <trkpt lat="43.65859" lon="3.5456">
        <ele>49</ele>
        <time>2023-04-30T11:23:32Z</time>
      </trkpt>
      <trkpt lat="43.65737" lon="3.54588">
        <ele>50</ele>
        <time>2023-04-30T11:23:54Z</time>
      </trkpt>
      <trkpt lat="43.65717" lon="3.54582">
        <ele>50</ele>
        <time>2023-04-30T11:23:58Z</time>
      </trkpt>
      <trkpt lat="43.65654" lon="3.5462">
        <ele>53</ele>
        <time>2023-04-30T11:24:10Z</time>
      </trkpt>
    </trkseg>
  </trk>
</gpx>